PWSweather.com
Personal Weather Stations
Station Observations
EI4HQ
Cork Harbour, CobhIE

Cork HarbourCobhIE

Lat: 51.85, Lon: -8.29

Elevation: 252

Station Type: Davis Vantage Pro2

http://www.corkharbourweather.ie

High Low Average
Temperature 53.2°F11.8°F -90.0°F-67.8°F 44.1°F6.7°F
Dew Point 52.3°F11.3°F 42.8°F6.0°F 48.9°F9.4°F
Winds 27.0 mph S43.5 mph S 6.0 mph 9.7 mph 13.6 mph 21.9 mph
Wind Gusts 48.0 mph77.2 mph 14.0 mph22.5 mph 28.2 mph45.4 mph
Humidity 98% 84% 92%
Pressure 29.91 in1012.90 in 29.02 in982.70 in -
Precipitation 5.96 in151.40 in - -
Hour Temp Dew Point Humidity Winds Wind Gusts Pressure Precip Precip Rate Daily Precip Total
12:00 AM 52.5°F11.4°C 51.1°F10.6°C 95% 26.0 mph S41.8 kmh S 44.0 mph70.8 kmh 29.08 in984.8 mb 0.00 in0.0 mm 0.00 in0.0 mm 0.00 in0.0 mm
12:03 AM 52.5°F11.4°C 51.4°F10.8°C 96% 24.0 mph S38.6 kmh S 41.0 mph66.0 kmh 29.08 in984.8 mb 0.00 in0.0 mm 0.00 in0.0 mm 0.00 in0.0 mm
12:06 AM 52.3°F11.3°C 51.3°F10.7°C 96% 25.0 mph S40.2 kmh S 40.0 mph64.4 kmh 29.08 in984.8 mb 0.00 in0.0 mm 0.00 in0.0 mm 0.00 in0.0 mm
12:09 AM 52.3°F11.3°C 51.3°F10.7°C 96% 25.0 mph S40.2 kmh S 40.0 mph64.4 kmh 29.08 in984.8 mb 0.00 in0.0 mm 0.00 in0.0 mm 0.00 in0.0 mm
12:12 AM 52.3°F11.3°C 51.3°F10.7°C 96% 25.0 mph S40.2 kmh S 40.0 mph64.4 kmh 29.08 in984.8 mb 0.00 in0.0 mm 0.00 in0.0 mm 0.00 in0.0 mm
12:15 AM 52.3°F11.3°C 51.3°F10.7°C 96% 24.0 mph S38.6 kmh S 40.0 mph64.4 kmh 29.07 in984.4 mb 0.00 in0.0 mm 0.00 in0.0 mm 0.00 in0.0 mm
12:18 AM 52.3°F11.3°C 51.3°F10.7°C 96% 25.0 mph S40.2 kmh S 43.0 mph69.2 kmh 29.07 in984.4 mb 0.00 in0.0 mm 0.00 in0.0 mm 0.00 in0.0 mm
12:21 AM 52.3°F11.3°C 51.3°F10.7°C 96% 25.0 mph S40.2 kmh S 43.0 mph69.2 kmh 29.07 in984.4 mb 0.00 in0.0 mm 0.00 in0.0 mm 0.00 in0.0 mm
12:24 AM 52.3°F11.3°C 51.3°F10.7°C 96% 26.0 mph S41.8 kmh S 43.0 mph69.2 kmh 29.07 in984.4 mb 0.00 in0.0 mm 0.00 in0.0 mm 0.00 in0.0 mm
12:27 AM 52.5°F11.4°C 51.4°F10.8°C 96% 25.0 mph S40.2 kmh S 43.0 mph69.2 kmh 29.07 in984.4 mb 0.00 in0.0 mm 0.00 in0.0 mm 0.00 in0.0 mm
12:30 AM 52.7°F11.5°C 51.6°F10.9°C 96% 25.0 mph S40.2 kmh S 46.0 mph74.0 kmh 29.07 in984.4 mb 0.00 in0.0 mm 0.00 in0.0 mm 0.00 in0.0 mm
12:33 AM 52.9°F11.6°C 51.6°F10.9°C 96% 24.0 mph S38.6 kmh S 46.0 mph74.0 kmh 29.07 in984.4 mb 0.00 in0.0 mm 0.00 in0.0 mm 0.00 in0.0 mm
12:36 AM 52.9°F11.6°C 51.8°F11.0°C 96% 24.0 mph S38.6 kmh S 46.0 mph74.0 kmh 29.07 in984.4 mb 0.00 in0.0 mm 0.00 in0.0 mm 0.00 in0.0 mm
12:39 AM 52.9°F11.6°C 51.8°F11.0°C 96% 24.0 mph S38.6 kmh S 42.0 mph67.6 kmh 29.06 in984.1 mb 0.00 in0.0 mm 0.00 in0.0 mm 0.00 in0.0 mm
12:42 AM 53.1°F11.7°C 52.0°F11.1°C 96% 24.0 mph S38.6 kmh S 42.0 mph67.6 kmh 29.07 in984.4 mb 0.00 in0.0 mm 0.00 in0.0 mm 0.00 in0.0 mm
12:45 AM 52.9°F11.6°C 51.4°F10.8°C 95% 23.0 mph S37.0 kmh S 44.0 mph70.8 kmh 29.06 in984.1 mb 0.00 in0.0 mm 0.00 in0.0 mm 0.00 in0.0 mm
12:48 AM 52.9°F11.6°C 51.4°F10.8°C 95% 22.0 mph S35.4 kmh S 44.0 mph70.8 kmh 29.06 in984.1 mb 0.00 in0.0 mm 0.00 in0.0 mm 0.00 in0.0 mm
12:51 AM 52.9°F11.6°C 51.4°F10.8°C 95% 24.0 mph S38.6 kmh S 48.0 mph77.2 kmh 29.05 in983.7 mb 0.00 in0.0 mm 0.00 in0.0 mm 0.00 in0.0 mm
12:54 AM 53.1°F11.7°C 51.6°F10.9°C 95% 26.0 mph S41.8 kmh S 48.0 mph77.2 kmh 29.06 in984.1 mb 0.00 in0.0 mm 0.00 in0.0 mm 0.00 in0.0 mm
12:57 AM 53.1°F11.7°C 51.6°F10.9°C 95% 27.0 mph S43.5 kmh S 48.0 mph77.2 kmh 29.05 in983.7 mb 0.00 in0.0 mm 0.00 in0.0 mm 0.00 in0.0 mm
01:00 AM 53.1°F11.7°C 51.6°F10.9°C 95% 27.0 mph S43.5 kmh S 48.0 mph77.2 kmh 29.05 in983.7 mb 0.00 in0.0 mm 0.00 in0.0 mm 0.00 in0.0 mm
01:03 AM 53.2°F11.8°C 51.8°F11.0°C 95% 26.0 mph S41.8 kmh S 44.0 mph70.8 kmh 29.05 in983.7 mb 0.00 in0.0 mm 0.00 in0.0 mm 0.00 in0.0 mm
01:06 AM 53.1°F11.7°C 51.6°F10.9°C 95% 26.0 mph S41.8 kmh S 44.0 mph70.8 kmh 29.05 in983.7 mb 0.00 in0.0 mm 0.00 in0.0 mm 0.00 in0.0 mm
01:09 AM 53.2°F11.8°C 51.8°F11.0°C 95% 26.0 mph S41.8 kmh S 41.0 mph66.0 kmh 29.05 in983.7 mb 0.00 in0.0 mm 0.00 in0.0 mm 0.00 in0.0 mm
01:12 AM 53.2°F11.8°C 51.8°F11.0°C 95% 25.0 mph S40.2 kmh S 41.0 mph66.0 kmh 29.06 in984.1 mb 0.00 in0.0 mm 0.00 in0.0 mm 0.00 in0.0 mm
01:15 AM 53.1°F11.7°C 51.6°F10.9°C 95% 24.0 mph S38.6 kmh S 46.0 mph74.0 kmh 29.05 in983.7 mb 0.00 in0.0 mm 0.00 in0.0 mm 0.00 in0.0 mm
01:18 AM 53.1°F11.7°C 51.6°F10.9°C 95% 25.0 mph S40.2 kmh S 46.0 mph74.0 kmh 29.05 in983.7 mb 0.00 in0.0 mm 0.00 in0.0 mm 0.00 in0.0 mm
01:21 AM 53.1°F11.7°C 51.6°F10.9°C 95% 25.0 mph S40.2 kmh S 46.0 mph74.0 kmh 29.05 in983.7 mb 0.00 in0.0 mm 0.00 in0.0 mm 0.00 in0.0 mm
01:24 AM 53.2°F11.8°C 51.8°F11.0°C 95% 26.0 mph S41.8 kmh S 46.0 mph74.0 kmh 29.05 in983.7 mb 0.00 in0.0 mm 0.00 in0.0 mm 0.00 in0.0 mm
01:27 AM 53.2°F11.8°C 51.8°F11.0°C 95% 25.0 mph S40.2 kmh S 43.0 mph69.2 kmh 29.04 in983.4 mb 0.00 in0.0 mm 0.00 in0.0 mm 0.00 in0.0 mm
01:30 AM 53.2°F11.8°C 51.8°F11.0°C 95% 25.0 mph S40.2 kmh S 43.0 mph69.2 kmh 29.05 in983.7 mb 0.00 in0.0 mm 0.00 in0.0 mm 0.00 in0.0 mm
01:33 AM 53.2°F11.8°C 51.8°F11.0°C 95% 24.0 mph S38.6 kmh S 41.0 mph66.0 kmh 29.05 in983.7 mb 0.00 in0.0 mm 0.00 in0.0 mm 0.00 in0.0 mm
01:36 AM 53.2°F11.8°C 52.0°F11.1°C 95% 24.0 mph S38.6 kmh S 41.0 mph66.0 kmh 29.04 in983.4 mb 0.00 in0.0 mm 0.00 in0.0 mm 0.00 in0.0 mm
01:39 AM 53.2°F11.8°C 52.0°F11.1°C 95% 25.0 mph S40.2 kmh S 41.0 mph66.0 kmh 29.04 in983.4 mb 0.00 in0.0 mm 0.00 in0.0 mm 0.00 in0.0 mm
01:42 AM 53.2°F11.8°C 51.8°F11.0°C 95% 26.0 mph S41.8 kmh S 42.0 mph67.6 kmh 29.03 in983.1 mb 0.00 in0.0 mm 0.00 in0.0 mm 0.00 in0.0 mm
01:45 AM 53.2°F11.8°C 51.8°F11.0°C 95% 26.0 mph S41.8 kmh S 42.0 mph67.6 kmh 29.04 in983.4 mb 0.00 in0.0 mm 0.00 in0.0 mm 0.00 in0.0 mm
01:48 AM 53.2°F11.8°C 51.8°F11.0°C 95% 24.0 mph S38.6 kmh S 42.0 mph67.6 kmh 29.04 in983.4 mb 0.00 in0.0 mm 0.00 in0.0 mm 0.00 in0.0 mm
01:51 AM 53.2°F11.8°C 51.8°F11.0°C 95% 22.0 mph S35.4 kmh S 38.0 mph61.2 kmh 29.05 in983.7 mb 0.00 in0.0 mm 0.00 in0.0 mm 0.00 in0.0 mm
01:54 AM 53.2°F11.8°C 51.8°F11.0°C 95% 20.0 mph S32.2 kmh S 34.0 mph54.7 kmh 29.04 in983.4 mb 0.00 in0.0 mm 0.00 in0.0 mm 0.00 in0.0 mm
01:57 AM 53.2°F11.8°C 51.8°F11.0°C 95% 18.0 mph S29.0 kmh S 34.0 mph54.7 kmh 29.04 in983.4 mb 0.00 in0.0 mm 0.00 in0.0 mm 0.00 in0.0 mm
02:00 AM 53.1°F11.7°C 51.6°F10.9°C 95% 17.0 mph S27.4 kmh S 37.0 mph59.5 kmh 29.05 in983.7 mb 0.00 in0.0 mm 0.00 in0.0 mm 0.00 in0.0 mm
02:03 AM 53.1°F11.7°C 51.6°F10.9°C 95% 17.0 mph SSW27.4 kmh SSW 37.0 mph59.5 kmh 29.03 in983.1 mb 0.00 in0.0 mm 0.00 in0.0 mm 0.00 in0.0 mm
02:06 AM 52.9°F11.6°C 51.8°F11.0°C 96% 18.0 mph S29.0 kmh S 37.0 mph59.5 kmh 29.04 in983.4 mb 0.00 in0.0 mm 0.00 in0.0 mm 0.00 in0.0 mm
02:09 AM 52.9°F11.6°C 51.8°F11.0°C 96% 19.0 mph S30.6 kmh S 36.0 mph57.9 kmh 29.03 in983.1 mb 0.00 in0.0 mm 0.00 in0.0 mm 0.00 in0.0 mm
02:12 AM 52.9°F11.6°C 51.8°F11.0°C 96% 19.0 mph S30.6 kmh S 33.0 mph53.1 kmh 29.03 in983.1 mb 0.00 in0.0 mm 0.00 in0.0 mm 0.00 in0.0 mm
02:15 AM 52.9°F11.6°C 51.6°F10.9°C 96% 19.0 mph SSW30.6 kmh SSW 32.0 mph51.5 kmh 29.03 in983.1 mb 0.00 in0.0 mm 0.00 in0.0 mm 0.00 in0.0 mm
02:18 AM 52.7°F11.5°C 51.6°F10.9°C 96% 19.0 mph SSW30.6 kmh SSW 32.0 mph51.5 kmh 29.03 in983.1 mb 0.00 in0.0 mm 0.00 in0.0 mm 0.00 in0.0 mm
02:21 AM 52.7°F11.5°C 51.6°F10.9°C 96% 18.0 mph SSW29.0 kmh SSW 36.0 mph57.9 kmh 29.04 in983.4 mb 0.00 in0.0 mm 0.00 in0.0 mm 0.00 in0.0 mm
02:24 AM 52.5°F11.4°C 51.4°F10.8°C 96% 18.0 mph S29.0 kmh S 36.0 mph57.9 kmh 29.03 in983.1 mb 0.00 in0.0 mm 0.00 in0.0 mm 0.00 in0.0 mm
02:27 AM 52.5°F11.4°C 51.4°F10.8°C 96% 19.0 mph S30.6 kmh S 39.0 mph62.8 kmh 29.02 in982.7 mb 0.00 in0.0 mm 0.00 in0.0 mm 0.00 in0.0 mm
02:30 AM 52.5°F11.4°C 51.4°F10.8°C 96% 21.0 mph S33.8 kmh S 41.0 mph66.0 kmh 29.02 in982.7 mb 0.00 in0.0 mm 0.00 in0.0 mm 0.00 in0.0 mm
02:33 AM 52.5°F11.4°C 51.6°F10.9°C 97% 22.0 mph S35.4 kmh S 41.0 mph66.0 kmh 29.02 in982.7 mb 0.00 in0.0 mm 0.00 in0.0 mm 0.00 in0.0 mm
02:36 AM 52.5°F11.4°C 51.6°F10.9°C 97% 22.0 mph S35.4 kmh S 41.0 mph66.0 kmh 29.02 in982.7 mb 0.00 in0.0 mm 0.00 in0.0 mm 0.00 in0.0 mm
02:39 AM 52.5°F11.4°C 51.6°F10.9°C 97% 21.0 mph S33.8 kmh S 36.0 mph57.9 kmh 29.02 in982.7 mb 0.00 in0.0 mm 0.00 in0.0 mm 0.00 in0.0 mm
02:42 AM 52.5°F11.4°C 51.6°F10.9°C 97% 20.0 mph S32.2 kmh S 36.0 mph57.9 kmh 29.02 in982.7 mb 0.00 in0.0 mm 0.00 in0.0 mm 0.00 in0.0 mm
02:45 AM 52.5°F11.4°C 51.6°F10.9°C 97% 18.0 mph S29.0 kmh S 36.0 mph57.9 kmh 29.02 in982.7 mb 0.00 in0.0 mm 0.00 in0.0 mm 0.00 in0.0 mm
02:48 AM 52.5°F11.4°C 51.6°F10.9°C 97% 15.0 mph SSW24.1 kmh SSW 32.0 mph51.5 kmh 29.02 in982.7 mb 0.00 in0.0 mm 0.00 in0.0 mm 0.00 in0.0 mm
02:51 AM 52.5°F11.4°C 51.8°F11.0°C 97% 14.0 mph SSW22.5 kmh SSW 29.0 mph46.7 kmh 29.02 in982.7 mb 0.00 in0.0 mm 0.00 in0.0 mm 0.00 in0.0 mm
02:54 AM 52.5°F11.4°C 51.8°F11.0°C 97% 14.0 mph SSW22.5 kmh SSW 35.0 mph56.3 kmh 29.02 in982.7 mb 0.00 in0.0 mm 0.00 in0.0 mm 0.00 in0.0 mm
02:57 AM 52.5°F11.4°C 52.0°F11.1°C 98% 14.0 mph SSW22.5 kmh SSW 35.0 mph56.3 kmh 29.02 in982.7 mb 0.00 in0.0 mm 0.00 in0.0 mm 0.00 in0.0 mm
03:00 AM 52.5°F11.4°C 52.0°F11.1°C 98% 15.0 mph SSW24.1 kmh SSW 35.0 mph56.3 kmh 29.02 in982.7 mb 0.00 in0.0 mm 0.00 in0.0 mm 0.00 in0.0 mm
03:03 AM 52.5°F11.4°C 52.0°F11.1°C 98% 16.0 mph SSW25.7 kmh SSW 32.0 mph51.5 kmh 29.02 in982.7 mb 0.00 in0.0 mm 0.00 in0.0 mm 0.00 in0.0 mm
03:06 AM 52.5°F11.4°C 51.8°F11.0°C 97% 16.0 mph SSW25.7 kmh SSW 35.0 mph56.3 kmh 29.02 in982.7 mb 0.00 in0.0 mm 0.00 in0.0 mm 0.00 in0.0 mm
03:09 AM 52.5°F11.4°C 51.8°F11.0°C 97% 16.0 mph SSW25.7 kmh SSW 35.0 mph56.3 kmh 29.02 in982.7 mb 0.00 in0.0 mm 0.00 in0.0 mm 0.00 in0.0 mm
03:12 AM 52.5°F11.4°C 51.8°F11.0°C 97% 16.0 mph SSW25.7 kmh SSW 35.0 mph56.3 kmh 29.02 in982.7 mb 0.00 in0.0 mm 0.00 in0.0 mm 0.00 in0.0 mm
03:15 AM 52.5°F11.4°C 51.8°F11.0°C 97% 15.0 mph SSW24.1 kmh SSW 35.0 mph56.3 kmh 29.02 in982.7 mb 0.00 in0.0 mm 0.00 in0.0 mm 0.00 in0.0 mm
03:18 AM 52.7°F11.5°C 51.8°F11.0°C 97% 14.0 mph SSW22.5 kmh SSW 29.0 mph46.7 kmh 29.02 in982.7 mb 0.00 in0.0 mm 0.00 in0.0 mm 0.00 in0.0 mm
03:21 AM 52.7°F11.5°C 52.2°F11.2°C 98% 13.0 mph SW20.9 kmh SW 29.0 mph46.7 kmh 29.02 in982.7 mb 0.00 in0.0 mm 0.00 in0.0 mm 0.00 in0.0 mm
03:24 AM 52.7°F11.5°C 52.2°F11.2°C 98% 12.0 mph SSW19.3 kmh SSW 29.0 mph46.7 kmh 29.02 in982.7 mb 0.00 in0.0 mm 0.00 in0.0 mm 0.00 in0.0 mm
03:27 AM 52.7°F11.5°C 52.2°F11.2°C 98% 11.0 mph SSW17.7 kmh SSW 28.0 mph45.1 kmh 29.02 in982.7 mb 0.00 in0.0 mm 0.00 in0.0 mm 0.00 in0.0 mm
03:30 AM 52.9°F11.6°C 52.3°F11.3°C 98% 12.0 mph SSW19.3 kmh SSW 28.0 mph45.1 kmh 29.02 in982.7 mb 0.00 in0.0 mm 0.00 in0.0 mm 0.00 in0.0 mm
03:33 AM 52.9°F11.6°C 52.3°F11.3°C 98% 13.0 mph SSW20.9 kmh SSW 28.0 mph45.1 kmh 29.02 in982.7 mb 0.00 in0.0 mm 0.00 in0.0 mm 0.00 in0.0 mm
03:36 AM 52.9°F11.6°C 52.3°F11.3°C 98% 13.0 mph SSW20.9 kmh SSW 25.0 mph40.2 kmh 29.02 in982.7 mb 0.00 in0.0 mm 0.00 in0.0 mm 0.00 in0.0 mm
03:39 AM 52.9°F11.6°C 52.3°F11.3°C 98% 13.0 mph SW20.9 kmh SW 25.0 mph40.2 kmh 29.02 in982.7 mb 0.00 in0.0 mm 0.00 in0.0 mm 0.00 in0.0 mm
03:42 AM 52.9°F11.6°C 52.3°F11.3°C 98% 13.0 mph SW20.9 kmh SW 23.0 mph37.0 kmh 29.02 in982.7 mb 0.00 in0.0 mm 0.00 in0.0 mm 0.00 in0.0 mm
03:45 AM 52.9°F11.6°C 52.3°F11.3°C 98% 13.0 mph SW20.9 kmh SW 23.0 mph37.0 kmh 29.02 in982.7 mb 0.00 in0.0 mm 0.00 in0.0 mm 0.00 in0.0 mm
03:48 AM 52.9°F11.6°C 52.3°F11.3°C 98% 13.0 mph SW20.9 kmh SW 24.0 mph38.6 kmh 29.02 in982.7 mb 0.00 in0.0 mm 0.00 in0.0 mm 0.00 in0.0 mm
03:51 AM 52.9°F11.6°C 52.3°F11.3°C 98% 14.0 mph SW22.5 kmh SW 29.0 mph46.7 kmh 29.03 in983.1 mb 0.00 in0.0 mm 0.00 in0.0 mm 0.00 in0.0 mm
03:54 AM 52.9°F11.6°C 52.3°F11.3°C 98% 14.0 mph SW22.5 kmh SW 29.0 mph46.7 kmh 29.03 in983.1 mb 0.00 in0.0 mm 0.00 in0.0 mm 0.00 in0.0 mm
03:57 AM 52.9°F11.6°C 52.3°F11.3°C 98% 14.0 mph SW22.5 kmh SW 29.0 mph46.7 kmh 29.03 in983.1 mb 0.00 in0.0 mm 0.00 in0.0 mm 0.00 in0.0 mm
04:00 AM 52.7°F11.5°C 52.2°F11.2°C 98% 13.0 mph SW20.9 kmh SW 29.0 mph46.7 kmh 29.03 in983.1 mb 0.00 in0.0 mm 0.00 in0.0 mm 0.00 in0.0 mm
04:03 AM 52.7°F11.5°C 52.2°F11.2°C 98% 14.0 mph SW22.5 kmh SW 29.0 mph46.7 kmh 29.03 in983.1 mb 0.00 in0.0 mm 0.00 in0.0 mm 0.00 in0.0 mm
04:06 AM 52.7°F11.5°C 52.2°F11.2°C 98% 14.0 mph SW22.5 kmh SW 29.0 mph46.7 kmh 29.03 in983.1 mb 0.00 in0.0 mm 0.00 in0.0 mm 0.00 in0.0 mm
04:09 AM 52.5°F11.4°C 52.0°F11.1°C 98% 13.0 mph SW20.9 kmh SW 29.0 mph46.7 kmh 29.03 in983.1 mb 0.00 in0.0 mm 0.00 in0.0 mm 0.00 in0.0 mm
04:12 AM 52.7°F11.5°C 51.8°F11.0°C 97% 13.0 mph SW20.9 kmh SW 29.0 mph46.7 kmh 29.03 in983.1 mb 0.00 in0.0 mm 0.00 in0.0 mm 0.00 in0.0 mm
04:15 AM 52.5°F11.4°C 52.0°F11.1°C 98% 13.0 mph SW20.9 kmh SW 28.0 mph45.1 kmh 29.04 in983.4 mb 0.00 in0.0 mm 0.00 in0.0 mm 0.00 in0.0 mm
04:18 AM 52.5°F11.4°C 52.0°F11.1°C 98% 14.0 mph SW22.5 kmh SW 28.0 mph45.1 kmh 29.04 in983.4 mb 0.00 in0.0 mm 0.00 in0.0 mm 0.00 in0.0 mm
04:21 AM 52.5°F11.4°C 51.6°F10.9°C 97% 15.0 mph SW24.1 kmh SW 28.0 mph45.1 kmh 29.04 in983.4 mb 0.00 in0.0 mm 0.00 in0.0 mm 0.00 in0.0 mm
04:24 AM 52.5°F11.4°C 51.6°F10.9°C 97% 15.0 mph WSW24.1 kmh WSW 27.0 mph43.5 kmh 29.04 in983.4 mb 0.00 in0.0 mm 0.00 in0.0 mm 0.00 in0.0 mm
04:27 AM 52.5°F11.4°C 51.6°F10.9°C 97% 15.0 mph SW24.1 kmh SW 31.0 mph49.9 kmh 29.04 in983.4 mb 0.00 in0.0 mm 0.00 in0.0 mm 0.00 in0.0 mm
04:30 AM 52.5°F11.4°C 51.6°F10.9°C 97% 14.0 mph SW22.5 kmh SW 31.0 mph49.9 kmh 29.04 in983.4 mb 0.00 in0.0 mm 0.00 in0.0 mm 0.00 in0.0 mm
04:33 AM 52.5°F11.4°C 51.6°F10.9°C 97% 14.0 mph SW22.5 kmh SW 32.0 mph51.5 kmh 29.05 in983.7 mb 0.00 in0.0 mm 0.00 in0.0 mm 0.00 in0.0 mm
04:36 AM 52.5°F11.4°C 51.6°F10.9°C 97% 15.0 mph SW24.1 kmh SW 37.0 mph59.5 kmh 29.04 in983.4 mb 0.00 in0.0 mm 0.00 in0.0 mm 0.00 in0.0 mm
04:39 AM 52.5°F11.4°C 51.6°F10.9°C 97% 16.0 mph SW25.7 kmh SW 37.0 mph59.5 kmh 29.05 in983.7 mb 0.00 in0.0 mm 0.00 in0.0 mm 0.00 in0.0 mm
04:42 AM 52.5°F11.4°C 51.6°F10.9°C 97% 17.0 mph SW27.4 kmh SW 37.0 mph59.5 kmh 29.05 in983.7 mb 0.00 in0.0 mm 0.00 in0.0 mm 0.00 in0.0 mm
04:45 AM 52.5°F11.4°C 51.4°F10.8°C 96% 17.0 mph SW27.4 kmh SW 37.0 mph59.5 kmh 29.05 in983.7 mb 0.00 in0.0 mm 0.00 in0.0 mm 0.00 in0.0 mm
04:48 AM 52.3°F11.3°C 51.3°F10.7°C 96% 17.0 mph SW27.4 kmh SW 39.0 mph62.8 kmh 29.05 in983.7 mb 0.00 in0.0 mm 0.00 in0.0 mm 0.00 in0.0 mm
04:51 AM 52.3°F11.3°C 51.3°F10.7°C 96% 18.0 mph SW29.0 kmh SW 39.0 mph62.8 kmh 29.05 in983.7 mb 0.00 in0.0 mm 0.00 in0.0 mm 0.00 in0.0 mm
04:54 AM 52.5°F11.4°C 51.4°F10.8°C 96% 16.0 mph SW25.7 kmh SW 39.0 mph62.8 kmh 29.05 in983.7 mb 0.00 in0.0 mm 0.00 in0.0 mm 0.00 in0.0 mm
04:57 AM 52.5°F11.4°C 51.1°F10.6°C 95% 16.0 mph SW25.7 kmh SW 39.0 mph62.8 kmh 29.05 in983.7 mb 0.00 in0.0 mm 0.00 in0.0 mm 0.00 in0.0 mm
05:00 AM 52.5°F11.4°C 51.1°F10.6°C 95% 14.0 mph SW22.5 kmh SW 30.0 mph48.3 kmh 29.05 in983.7 mb 0.00 in0.0 mm 0.00 in0.0 mm 0.00 in0.0 mm
05:03 AM 52.3°F11.3°C 51.1°F10.6°C 95% 16.0 mph SW25.7 kmh SW 27.0 mph43.5 kmh 29.05 in983.7 mb 0.00 in0.0 mm 0.00 in0.0 mm 0.00 in0.0 mm
05:06 AM 52.3°F11.3°C 50.9°F10.5°C 95% 16.0 mph SW25.7 kmh SW 28.0 mph45.1 kmh 29.05 in983.7 mb 0.00 in0.0 mm 0.00 in0.0 mm 0.00 in0.0 mm
05:09 AM 52.3°F11.3°C 50.9°F10.5°C 95% 18.0 mph SW29.0 kmh SW 33.0 mph53.1 kmh 29.05 in983.7 mb 0.00 in0.0 mm 0.00 in0.0 mm 0.00 in0.0 mm
05:12 AM 52.2°F11.2°C 50.9°F10.5°C 95% 18.0 mph SW29.0 kmh SW 33.0 mph53.1 kmh 29.06 in984.1 mb 0.00 in0.0 mm 0.00 in0.0 mm 0.00 in0.0 mm
05:15 AM 52.2°F11.2°C 50.9°F10.5°C 95% 18.0 mph SW29.0 kmh SW 33.0 mph53.1 kmh 29.06 in984.1 mb 0.00 in0.0 mm 0.00 in0.0 mm 0.00 in0.0 mm
05:18 AM 52.2°F11.2°C 50.9°F10.5°C 95% 16.0 mph SW25.7 kmh SW 29.0 mph46.7 kmh 29.06 in984.1 mb 0.00 in0.0 mm 0.00 in0.0 mm 0.00 in0.0 mm
05:21 AM 52.2°F11.2°C 50.9°F10.5°C 95% 17.0 mph SW27.4 kmh SW 29.0 mph46.7 kmh 29.06 in984.1 mb 0.00 in0.0 mm 0.00 in0.0 mm 0.00 in0.0 mm
05:24 AM 52.2°F11.2°C 50.9°F10.5°C 95% 16.0 mph SW25.7 kmh SW 29.0 mph46.7 kmh 29.06 in984.1 mb 0.00 in0.0 mm 0.00 in0.0 mm 0.00 in0.0 mm
05:27 AM 52.2°F11.2°C 50.5°F10.3°C 94% 17.0 mph SW27.4 kmh SW 30.0 mph48.3 kmh 29.06 in984.1 mb 0.00 in0.0 mm 0.00 in0.0 mm 0.00 in0.0 mm
05:30 AM 52.2°F11.2°C 50.4°F10.2°C 94% 17.0 mph SW27.4 kmh SW 32.0 mph51.5 kmh 29.05 in983.7 mb 0.00 in0.0 mm 0.00 in0.0 mm 0.00 in0.0 mm
05:33 AM 52.0°F11.1°C 50.4°F10.2°C 94% 18.0 mph SW29.0 kmh SW 32.0 mph51.5 kmh 29.06 in984.1 mb 0.00 in0.0 mm 0.00 in0.0 mm 0.00 in0.0 mm
05:36 AM 52.0°F11.1°C 50.4°F10.2°C 94% 18.0 mph SW29.0 kmh SW 32.0 mph51.5 kmh 29.06 in984.1 mb 0.00 in0.0 mm 0.00 in0.0 mm 0.00 in0.0 mm
05:39 AM 52.0°F11.1°C 50.4°F10.2°C 94% 17.0 mph SW27.4 kmh SW 32.0 mph51.5 kmh 29.06 in984.1 mb 0.00 in0.0 mm 0.00 in0.0 mm 0.00 in0.0 mm
05:42 AM 52.0°F11.1°C 50.4°F10.2°C 94% 16.0 mph SW25.7 kmh SW 32.0 mph51.5 kmh 29.06 in984.1 mb 0.00 in0.0 mm 0.00 in0.0 mm 0.00 in0.0 mm
05:45 AM 52.0°F11.1°C 50.5°F10.3°C 95% 16.0 mph SW25.7 kmh SW 32.0 mph51.5 kmh 29.06 in984.1 mb 0.00 in0.0 mm 0.00 in0.0 mm 0.00 in0.0 mm
05:48 AM 51.8°F11.0°C 50.4°F10.2°C 95% 16.0 mph SW25.7 kmh SW 32.0 mph51.5 kmh 29.06 in984.1 mb 0.00 in0.0 mm 0.00 in0.0 mm 0.00 in0.0 mm
05:51 AM 51.8°F11.0°C 50.4°F10.2°C 95% 16.0 mph SW25.7 kmh SW 29.0 mph46.7 kmh 29.06 in984.1 mb 0.00 in0.0 mm 0.00 in0.0 mm 0.00 in0.0 mm
05:54 AM 51.6°F10.9°C 50.4°F10.2°C 95% 17.0 mph SW27.4 kmh SW 30.0 mph48.3 kmh 29.06 in984.1 mb 0.00 in0.0 mm 0.00 in0.0 mm 0.00 in0.0 mm
05:57 AM 51.6°F10.9°C 50.4°F10.2°C 95% 18.0 mph SW29.0 kmh SW 31.0 mph49.9 kmh 29.06 in984.1 mb 0.00 in0.0 mm 0.00 in0.0 mm 0.00 in0.0 mm
06:00 AM 51.6°F10.9°C 50.4°F10.2°C 95% 17.0 mph SW27.4 kmh SW 31.0 mph49.9 kmh 29.06 in984.1 mb 0.00 in0.0 mm 0.00 in0.0 mm 0.00 in0.0 mm
06:03 AM 51.6°F10.9°C 50.4°F10.2°C 95% 18.0 mph SW29.0 kmh SW 31.0 mph49.9 kmh 29.06 in984.1 mb 0.00 in0.0 mm 0.00 in0.0 mm 0.00 in0.0 mm
06:06 AM 51.6°F10.9°C 50.4°F10.2°C 95% 17.0 mph SW27.4 kmh SW 29.0 mph46.7 kmh 29.06 in984.1 mb 0.00 in0.0 mm 0.00 in0.0 mm 0.00 in0.0 mm
06:09 AM 51.6°F10.9°C 50.4°F10.2°C 95% 17.0 mph SW27.4 kmh SW 29.0 mph46.7 kmh 29.06 in984.1 mb 0.00 in0.0 mm 0.00 in0.0 mm 0.00 in0.0 mm
06:12 AM 51.6°F10.9°C 50.4°F10.2°C 95% 18.0 mph SW29.0 kmh SW 30.0 mph48.3 kmh 29.06 in984.1 mb 0.00 in0.0 mm 0.00 in0.0 mm 0.00 in0.0 mm
06:15 AM 51.8°F11.0°C 50.4°F10.2°C 95% 18.0 mph SW29.0 kmh SW 31.0 mph49.9 kmh 29.06 in984.1 mb 0.00 in0.0 mm 0.00 in0.0 mm 0.00 in0.0 mm
06:18 AM 51.8°F11.0°C 50.4°F10.2°C 95% 18.0 mph SW29.0 kmh SW 33.0 mph53.1 kmh 29.06 in984.1 mb 0.00 in0.0 mm 0.00 in0.0 mm 0.00 in0.0 mm
06:21 AM 52.0°F11.1°C 50.5°F10.3°C 95% 19.0 mph SW30.6 kmh SW 33.0 mph53.1 kmh 29.06 in984.1 mb 0.00 in0.0 mm 0.00 in0.0 mm 0.00 in0.0 mm
06:24 AM 52.0°F11.1°C 50.5°F10.3°C 95% 18.0 mph SW29.0 kmh SW 33.0 mph53.1 kmh 29.07 in984.4 mb 0.00 in0.0 mm 0.00 in0.0 mm 0.00 in0.0 mm
06:27 AM 52.0°F11.1°C 50.5°F10.3°C 95% 19.0 mph WSW30.6 kmh WSW 32.0 mph51.5 kmh 29.07 in984.4 mb 0.00 in0.0 mm 0.00 in0.0 mm 0.00 in0.0 mm
06:30 AM 52.0°F11.1°C 50.5°F10.3°C 95% 20.0 mph WSW32.2 kmh WSW 35.0 mph56.3 kmh 29.06 in984.1 mb 0.00 in0.0 mm 0.00 in0.0 mm 0.00 in0.0 mm
06:33 AM 52.0°F11.1°C 50.4°F10.2°C 94% 19.0 mph WSW30.6 kmh WSW 35.0 mph56.3 kmh 29.07 in984.4 mb 0.00 in0.0 mm 0.00 in0.0 mm 0.00 in0.0 mm
06:36 AM 52.0°F11.1°C 50.4°F10.2°C 94% 18.0 mph WSW29.0 kmh WSW 35.0 mph56.3 kmh 29.07 in984.4 mb 0.00 in0.0 mm 0.00 in0.0 mm 0.00 in0.0 mm
06:39 AM 52.0°F11.1°C 50.4°F10.2°C 94% 18.0 mph WSW29.0 kmh WSW 35.0 mph56.3 kmh 29.07 in984.4 mb 0.00 in0.0 mm 0.00 in0.0 mm 0.00 in0.0 mm
06:42 AM 52.0°F11.1°C 50.4°F10.2°C 94% 18.0 mph WSW29.0 kmh WSW 32.0 mph51.5 kmh 29.07 in984.4 mb 0.00 in0.0 mm 0.00 in0.0 mm 0.00 in0.0 mm
06:45 AM 52.0°F11.1°C 50.4°F10.2°C 94% 18.0 mph WSW29.0 kmh WSW 32.0 mph51.5 kmh 29.07 in984.4 mb 0.00 in0.0 mm 0.00 in0.0 mm 0.00 in0.0 mm
06:48 AM 52.0°F11.1°C 50.4°F10.2°C 94% 19.0 mph WSW30.6 kmh WSW 36.0 mph57.9 kmh 29.07 in984.4 mb 0.00 in0.0 mm 0.00 in0.0 mm 0.00 in0.0 mm
06:51 AM 52.0°F11.1°C 50.2°F10.1°C 94% 18.0 mph WSW29.0 kmh WSW 36.0 mph57.9 kmh 29.07 in984.4 mb 0.00 in0.0 mm 0.00 in0.0 mm 0.00 in0.0 mm
06:54 AM 52.0°F11.1°C 50.2°F10.1°C 94% 18.0 mph WSW29.0 kmh WSW 36.0 mph57.9 kmh 29.07 in984.4 mb 0.00 in0.0 mm 0.00 in0.0 mm 0.00 in0.0 mm
06:57 AM 51.8°F11.0°C 50.2°F10.1°C 94% 18.0 mph WSW29.0 kmh WSW 34.0 mph54.7 kmh 29.08 in984.8 mb 0.00 in0.0 mm 0.00 in0.0 mm 0.00 in0.0 mm
07:00 AM 51.8°F11.0°C 50.2°F10.1°C 94% 17.0 mph WSW27.4 kmh WSW 34.0 mph54.7 kmh 29.08 in984.8 mb 0.00 in0.0 mm 0.00 in0.0 mm 0.00 in0.0 mm
07:03 AM 51.8°F11.0°C 50.2°F10.1°C 94% 17.0 mph WSW27.4 kmh WSW 30.0 mph48.3 kmh 29.08 in984.8 mb 0.00 in0.0 mm 0.00 in0.0 mm 0.00 in0.0 mm
07:06 AM 51.8°F11.0°C 50.2°F10.1°C 94% 17.0 mph WSW27.4 kmh WSW 30.0 mph48.3 kmh 29.08 in984.8 mb 0.00 in0.0 mm 0.00 in0.0 mm 0.00 in0.0 mm
07:09 AM 51.8°F11.0°C 50.2°F10.1°C 94% 18.0 mph WSW29.0 kmh WSW 34.0 mph54.7 kmh 29.08 in984.8 mb 0.00 in0.0 mm 0.00 in0.0 mm 0.00 in0.0 mm
07:12 AM 51.8°F11.0°C 50.2°F10.1°C 94% 19.0 mph WSW30.6 kmh WSW 35.0 mph56.3 kmh 29.08 in984.8 mb 0.00 in0.0 mm 0.00 in0.0 mm 0.00 in0.0 mm
07:15 AM 51.8°F11.0°C 50.2°F10.1°C 94% 19.0 mph WSW30.6 kmh WSW 35.0 mph56.3 kmh 29.09 in985.1 mb 0.00 in0.0 mm 0.00 in0.0 mm 0.00 in0.0 mm
07:18 AM 51.8°F11.0°C 50.2°F10.1°C 94% 19.0 mph WSW30.6 kmh WSW 35.0 mph56.3 kmh 29.09 in985.1 mb 0.00 in0.0 mm 0.00 in0.0 mm 0.00 in0.0 mm
07:21 AM 51.8°F11.0°C 50.2°F10.1°C 94% 19.0 mph WSW30.6 kmh WSW 32.0 mph51.5 kmh 29.09 in985.1 mb 0.00 in0.0 mm 0.00 in0.0 mm 0.00 in0.0 mm
07:24 AM 51.8°F11.0°C 50.2°F10.1°C 94% 20.0 mph WSW32.2 kmh WSW 33.0 mph53.1 kmh 29.10 in985.4 mb 0.00 in0.0 mm 0.00 in0.0 mm 0.00 in0.0 mm
07:27 AM 51.8°F11.0°C 50.2°F10.1°C 94% 20.0 mph WSW32.2 kmh WSW 33.0 mph53.1 kmh 29.09 in985.1 mb 0.00 in0.0 mm 0.00 in0.0 mm 0.00 in0.0 mm
07:30 AM 51.8°F11.0°C 50.2°F10.1°C 94% 17.0 mph WSW27.4 kmh WSW 33.0 mph53.1 kmh 29.09 in985.1 mb 0.00 in0.0 mm 0.00 in0.0 mm 0.00 in0.0 mm
07:33 AM 51.8°F11.0°C 50.2°F10.1°C 94% 17.0 mph WSW27.4 kmh WSW 30.0 mph48.3 kmh 29.10 in985.4 mb 0.00 in0.0 mm 0.00 in0.0 mm 0.00 in0.0 mm
07:36 AM 51.6°F10.9°C 50.0°F10.0°C 94% 17.0 mph WSW27.4 kmh WSW 31.0 mph49.9 kmh 29.11 in985.8 mb 0.00 in0.0 mm 0.00 in0.0 mm 0.00 in0.0 mm
07:39 AM 51.6°F10.9°C 50.0°F10.0°C 94% 18.0 mph WSW29.0 kmh WSW 31.0 mph49.9 kmh 29.11 in985.8 mb 0.00 in0.0 mm 0.00 in0.0 mm 0.00 in0.0 mm
07:42 AM 51.6°F10.9°C 50.0°F10.0°C 94% 19.0 mph WSW30.6 kmh WSW 31.0 mph49.9 kmh 29.11 in985.8 mb 0.00 in0.0 mm 0.00 in0.0 mm 0.00 in0.0 mm
07:45 AM 51.8°F11.0°C 50.2°F10.1°C 94% 17.0 mph WSW27.4 kmh WSW 31.0 mph49.9 kmh 29.11 in985.8 mb 0.00 in0.0 mm 0.00 in0.0 mm 0.00 in0.0 mm
07:48 AM 51.8°F11.0°C 50.2°F10.1°C 94% 18.0 mph WSW29.0 kmh WSW 32.0 mph51.5 kmh 29.11 in985.8 mb 0.00 in0.0 mm 0.00 in0.0 mm 0.00 in0.0 mm
07:51 AM 51.8°F11.0°C 50.2°F10.1°C 94% 16.0 mph WSW25.7 kmh WSW 32.0 mph51.5 kmh 29.11 in985.8 mb 0.00 in0.0 mm 0.00 in0.0 mm 0.00 in0.0 mm
07:54 AM 51.8°F11.0°C 50.2°F10.1°C 94% 17.0 mph WSW27.4 kmh WSW 32.0 mph51.5 kmh 29.12 in986.1 mb 0.00 in0.0 mm 0.00 in0.0 mm 0.00 in0.0 mm
07:57 AM 51.8°F11.0°C 50.2°F10.1°C 94% 18.0 mph WSW29.0 kmh WSW 32.0 mph51.5 kmh 29.11 in985.8 mb 0.00 in0.0 mm 0.00 in0.0 mm 0.00 in0.0 mm
08:00 AM 51.8°F11.0°C 50.2°F10.1°C 94% 17.0 mph WSW27.4 kmh WSW 27.0 mph43.5 kmh 29.12 in986.1 mb 0.00 in0.0 mm 0.00 in0.0 mm 0.00 in0.0 mm
08:03 AM 51.8°F11.0°C 50.2°F10.1°C 94% 16.0 mph WSW25.7 kmh WSW 27.0 mph43.5 kmh 29.12 in986.1 mb 0.00 in0.0 mm 0.00 in0.0 mm 0.00 in0.0 mm
08:06 AM 51.8°F11.0°C 50.2°F10.1°C 94% 16.0 mph WSW25.7 kmh WSW 28.0 mph45.1 kmh 29.12 in986.1 mb 0.00 in0.0 mm 0.00 in0.0 mm 0.00 in0.0 mm
08:09 AM 51.8°F11.0°C 50.2°F10.1°C 94% 16.0 mph WSW25.7 kmh WSW 28.0 mph45.1 kmh 29.13 in986.5 mb 0.00 in0.0 mm 0.00 in0.0 mm 0.00 in0.0 mm
08:12 AM 51.8°F11.0°C 50.2°F10.1°C 94% 17.0 mph WSW27.4 kmh WSW 28.0 mph45.1 kmh 29.14 in986.8 mb 0.00 in0.0 mm 0.00 in0.0 mm 0.00 in0.0 mm
08:15 AM 51.8°F11.0°C 50.2°F10.1°C 94% 17.0 mph WSW27.4 kmh WSW 28.0 mph45.1 kmh 29.14 in986.8 mb 0.00 in0.0 mm 0.00 in0.0 mm 0.00 in0.0 mm
08:18 AM 52.0°F11.1°C 50.2°F10.1°C 94% 17.0 mph WSW27.4 kmh WSW 28.0 mph45.1 kmh 29.14 in986.8 mb 0.00 in0.0 mm 0.00 in0.0 mm 0.00 in0.0 mm
08:21 AM 52.0°F11.1°C 50.2°F10.1°C 94% 17.0 mph WSW27.4 kmh WSW 31.0 mph49.9 kmh 29.14 in986.8 mb 0.00 in0.0 mm 0.00 in0.0 mm 0.00 in0.0 mm
08:24 AM 52.0°F11.1°C 50.4°F10.2°C 94% 16.0 mph WSW25.7 kmh WSW 31.0 mph49.9 kmh 29.15 in987.1 mb 0.00 in0.0 mm 0.00 in0.0 mm 0.00 in0.0 mm
08:27 AM 52.0°F11.1°C 50.4°F10.2°C 94% 15.0 mph WSW24.1 kmh WSW 31.0 mph49.9 kmh 29.15 in987.1 mb 0.00 in0.0 mm 0.00 in0.0 mm 0.00 in0.0 mm
08:30 AM 52.2°F11.2°C 50.4°F10.2°C 94% 15.0 mph WSW24.1 kmh WSW 26.0 mph41.8 kmh 29.15 in987.1 mb 0.00 in0.0 mm 0.00 in0.0 mm 0.00 in0.0 mm
08:33 AM 52.2°F11.2°C 50.4°F10.2°C 94% 15.0 mph WSW24.1 kmh WSW 26.0 mph41.8 kmh 29.15 in987.1 mb 0.00 in0.0 mm 0.00 in0.0 mm 0.00 in0.0 mm
08:36 AM 52.2°F11.2°C 50.5°F10.3°C 94% 14.0 mph WSW22.5 kmh WSW 25.0 mph40.2 kmh 29.16 in987.5 mb 0.00 in0.0 mm 0.00 in0.0 mm 0.00 in0.0 mm
08:39 AM 52.3°F11.3°C 50.5°F10.3°C 94% 13.0 mph WSW20.9 kmh WSW 25.0 mph40.2 kmh 29.16 in987.5 mb 0.00 in0.0 mm 0.00 in0.0 mm 0.00 in0.0 mm
08:42 AM 52.3°F11.3°C 50.5°F10.3°C 94% 13.0 mph WSW20.9 kmh WSW 25.0 mph40.2 kmh 29.17 in987.8 mb 0.00 in0.0 mm 0.00 in0.0 mm 0.00 in0.0 mm
08:45 AM 52.3°F11.3°C 50.7°F10.4°C 94% 12.0 mph WSW19.3 kmh WSW 25.0 mph40.2 kmh 29.17 in987.8 mb 0.00 in0.0 mm 0.00 in0.0 mm 0.00 in0.0 mm
08:48 AM 52.3°F11.3°C 50.5°F10.3°C 94% 12.0 mph WSW19.3 kmh WSW 25.0 mph40.2 kmh 29.17 in987.8 mb 0.00 in0.0 mm 0.00 in0.0 mm 0.00 in0.0 mm
08:51 AM 52.3°F11.3°C 50.9°F10.5°C 95% 12.0 mph WSW19.3 kmh WSW 24.0 mph38.6 kmh 29.18 in988.1 mb 0.00 in0.0 mm 0.00 in0.0 mm 0.00 in0.0 mm
08:54 AM 52.3°F11.3°C 50.9°F10.5°C 95% 12.0 mph WSW19.3 kmh WSW 27.0 mph43.5 kmh 29.18 in988.1 mb 0.00 in0.0 mm 0.00 in0.0 mm 0.00 in0.0 mm
08:57 AM 52.3°F11.3°C 50.5°F10.3°C 94% 12.0 mph WSW19.3 kmh WSW 27.0 mph43.5 kmh 29.18 in988.1 mb 0.00 in0.0 mm 0.00 in0.0 mm 0.00 in0.0 mm
09:00 AM 52.3°F11.3°C 50.5°F10.3°C 94% 14.0 mph WSW22.5 kmh WSW 29.0 mph46.7 kmh 29.19 in988.5 mb 0.00 in0.0 mm 0.00 in0.0 mm 0.00 in0.0 mm
09:03 AM 52.2°F11.2°C 50.9°F10.5°C 95% 14.0 mph WSW22.5 kmh WSW 29.0 mph46.7 kmh 29.19 in988.5 mb 0.00 in0.0 mm 0.00 in0.0 mm 0.00 in0.0 mm
09:06 AM 52.3°F11.3°C 50.9°F10.5°C 95% 13.0 mph WSW20.9 kmh WSW 29.0 mph46.7 kmh 29.19 in988.5 mb 0.00 in0.0 mm 0.00 in0.0 mm 0.00 in0.0 mm
09:09 AM 52.3°F11.3°C 50.5°F10.3°C 94% 12.0 mph WSW19.3 kmh WSW 26.0 mph41.8 kmh 29.20 in988.8 mb 0.00 in0.0 mm 0.00 in0.0 mm 0.00 in0.0 mm
09:12 AM 52.3°F11.3°C 50.7°F10.4°C 94% 12.0 mph W19.3 kmh W 31.0 mph49.9 kmh 29.20 in988.8 mb 0.00 in0.0 mm 0.00 in0.0 mm 0.00 in0.0 mm
09:15 AM 52.5°F11.4°C 50.9°F10.5°C 94% 13.0 mph W20.9 kmh W 31.0 mph49.9 kmh 29.20 in988.8 mb 0.00 in0.0 mm 0.00 in0.0 mm 0.00 in0.0 mm
09:18 AM 52.7°F11.5°C 51.1°F10.6°C 94% 13.0 mph W20.9 kmh W 31.0 mph49.9 kmh 29.20 in988.8 mb 0.00 in0.0 mm 0.00 in0.0 mm 0.00 in0.0 mm
09:21 AM 52.9°F11.6°C 51.1°F10.6°C 94% 14.0 mph W22.5 kmh W 31.0 mph49.9 kmh 29.20 in988.8 mb 0.00 in0.0 mm 0.00 in0.0 mm 0.00 in0.0 mm
09:24 AM 52.9°F11.6°C 51.3°F10.7°C 94% 14.0 mph WSW22.5 kmh WSW 28.0 mph45.1 kmh 29.21 in989.2 mb 0.00 in0.0 mm 0.00 in0.0 mm 0.00 in0.0 mm
09:27 AM 52.9°F11.6°C 51.3°F10.7°C 94% 14.0 mph W22.5 kmh W 28.0 mph45.1 kmh 29.21 in989.2 mb 0.00 in0.0 mm 0.00 in0.0 mm 0.00 in0.0 mm
09:30 AM 52.9°F11.6°C 50.9°F10.5°C 93% 14.0 mph W22.5 kmh W 25.0 mph40.2 kmh 29.21 in989.2 mb 0.00 in0.0 mm 0.00 in0.0 mm 0.00 in0.0 mm
09:33 AM 53.1°F11.7°C 51.1°F10.6°C 93% 14.0 mph W22.5 kmh W 27.0 mph43.5 kmh 29.22 in989.5 mb 0.00 in0.0 mm 0.00 in0.0 mm 0.00 in0.0 mm
09:36 AM 53.1°F11.7°C 51.1°F10.6°C 93% 15.0 mph W24.1 kmh W 31.0 mph49.9 kmh 29.22 in989.5 mb 0.00 in0.0 mm 0.00 in0.0 mm 0.00 in0.0 mm
09:39 AM 52.9°F11.6°C 50.9°F10.5°C 93% 15.0 mph W24.1 kmh W 31.0 mph49.9 kmh 29.22 in989.5 mb 0.00 in0.0 mm 0.00 in0.0 mm 0.00 in0.0 mm
09:42 AM 52.9°F11.6°C 50.9°F10.5°C 93% 15.0 mph W24.1 kmh W 31.0 mph49.9 kmh 29.22 in989.5 mb 0.00 in0.0 mm 0.00 in0.0 mm 0.00 in0.0 mm
09:45 AM 52.7°F11.5°C 50.7°F10.4°C 93% 14.0 mph W22.5 kmh W 31.0 mph49.9 kmh 29.23 in989.8 mb 0.00 in0.0 mm 0.00 in0.0 mm 0.00 in0.0 mm
09:48 AM 52.7°F11.5°C 50.7°F10.4°C 93% 14.0 mph W22.5 kmh W 28.0 mph45.1 kmh 29.23 in989.8 mb 0.00 in0.0 mm 0.00 in0.0 mm 0.00 in0.0 mm
09:51 AM 52.5°F11.4°C 50.7°F10.4°C 93% 14.0 mph W22.5 kmh W 30.0 mph48.3 kmh 29.23 in989.8 mb 0.00 in0.0 mm 0.00 in0.0 mm 0.00 in0.0 mm
09:54 AM 52.5°F11.4°C 50.5°F10.3°C 93% 15.0 mph W24.1 kmh W 30.0 mph48.3 kmh 29.23 in989.8 mb 0.00 in0.0 mm 0.00 in0.0 mm 0.00 in0.0 mm
09:57 AM 52.3°F11.3°C 50.4°F10.2°C 93% 14.0 mph W22.5 kmh W 30.0 mph48.3 kmh 29.24 in990.2 mb 0.00 in0.0 mm 0.00 in0.0 mm 0.00 in0.0 mm
10:00 AM 52.2°F11.2°C 50.5°F10.3°C 94% 15.0 mph W24.1 kmh W 29.0 mph46.7 kmh 29.24 in990.2 mb 0.00 in0.0 mm 0.00 in0.0 mm 0.00 in0.0 mm
10:03 AM 52.2°F11.2°C 50.4°F10.2°C 94% 15.0 mph W24.1 kmh W 29.0 mph46.7 kmh 29.25 in990.5 mb 0.00 in0.0 mm 0.00 in0.0 mm 0.00 in0.0 mm
10:06 AM 52.2°F11.2°C 50.4°F10.2°C 94% 15.0 mph W24.1 kmh W 29.0 mph46.7 kmh 29.25 in990.5 mb 0.00 in0.0 mm 0.00 in0.0 mm 0.00 in0.0 mm
10:09 AM 52.0°F11.1°C 50.4°F10.2°C 94% 14.0 mph W22.5 kmh W 28.0 mph45.1 kmh 29.25 in990.5 mb 0.00 in0.0 mm 0.00 in0.0 mm 0.00 in0.0 mm
10:12 AM 52.0°F11.1°C 50.4°F10.2°C 94% 14.0 mph W22.5 kmh W 26.0 mph41.8 kmh 29.26 in990.9 mb 0.00 in0.0 mm 0.00 in0.0 mm 0.00 in0.0 mm
10:15 AM 52.0°F11.1°C 50.4°F10.2°C 94% 13.0 mph W20.9 kmh W 26.0 mph41.8 kmh 29.26 in990.9 mb 0.00 in0.0 mm 0.00 in0.0 mm 0.00 in0.0 mm
10:18 AM 52.0°F11.1°C 50.2°F10.1°C 94% 12.0 mph W19.3 kmh W 26.0 mph41.8 kmh 29.26 in990.9 mb 0.00 in0.0 mm 0.00 in0.0 mm 0.00 in0.0 mm
10:21 AM 52.0°F11.1°C 50.0°F10.0°C 93% 12.0 mph W19.3 kmh W 24.0 mph38.6 kmh 29.27 in991.2 mb 0.00 in0.0 mm 0.00 in0.0 mm 0.00 in0.0 mm
10:24 AM 52.0°F11.1°C 50.0°F10.0°C 93% 12.0 mph W19.3 kmh W 24.0 mph38.6 kmh 29.27 in991.2 mb 0.00 in0.0 mm 0.00 in0.0 mm 0.00 in0.0 mm
10:27 AM 52.0°F11.1°C 50.0°F10.0°C 93% 12.0 mph W19.3 kmh W 24.0 mph38.6 kmh 29.27 in991.2 mb 0.00 in0.0 mm 0.00 in0.0 mm 0.00 in0.0 mm
10:30 AM 52.0°F11.1°C 50.0°F10.0°C 93% 12.0 mph W19.3 kmh W 26.0 mph41.8 kmh 29.27 in991.2 mb 0.00 in0.0 mm 0.00 in0.0 mm 0.00 in0.0 mm
10:33 AM 52.0°F11.1°C 50.0°F10.0°C 93% 12.0 mph W19.3 kmh W 26.0 mph41.8 kmh 29.27 in991.2 mb 0.00 in0.0 mm 0.00 in0.0 mm 0.00 in0.0 mm
10:36 AM 52.2°F11.2°C 50.2°F10.1°C 93% 12.0 mph W19.3 kmh W 26.0 mph41.8 kmh 29.27 in991.2 mb 0.00 in0.0 mm 0.00 in0.0 mm 0.00 in0.0 mm
10:39 AM 52.2°F11.2°C 50.2°F10.1°C 93% 12.0 mph W19.3 kmh W 25.0 mph40.2 kmh 29.28 in991.5 mb 0.00 in0.0 mm 0.00 in0.0 mm 0.00 in0.0 mm
10:42 AM 52.2°F11.2°C 50.2°F10.1°C 93% 12.0 mph W19.3 kmh W 25.0 mph40.2 kmh 29.28 in991.5 mb 0.00 in0.0 mm 0.00 in0.0 mm 0.00 in0.0 mm
10:45 AM 52.2°F11.2°C 50.2°F10.1°C 93% 12.0 mph W19.3 kmh W 25.0 mph40.2 kmh 29.28 in991.5 mb 0.00 in0.0 mm 0.00 in0.0 mm 0.00 in0.0 mm
10:48 AM 52.2°F11.2°C 50.2°F10.1°C 93% 12.0 mph W19.3 kmh W 29.0 mph46.7 kmh 29.28 in991.5 mb 0.00 in0.0 mm 0.00 in0.0 mm 0.00 in0.0 mm
10:51 AM 52.0°F11.1°C 50.0°F10.0°C 93% 13.0 mph W20.9 kmh W 29.0 mph46.7 kmh 29.28 in991.5 mb 0.00 in0.0 mm 0.00 in0.0 mm 0.00 in0.0 mm
10:54 AM 51.8°F11.0°C 49.8°F9.9°C 93% 13.0 mph W20.9 kmh W 29.0 mph46.7 kmh 29.29 in991.9 mb 0.00 in0.0 mm 0.00 in0.0 mm 0.00 in0.0 mm
10:57 AM 51.8°F11.0°C 49.8°F9.9°C 93% 14.0 mph W22.5 kmh W 29.0 mph46.7 kmh 29.29 in991.9 mb 0.00 in0.0 mm 0.00 in0.0 mm 0.00 in0.0 mm
11:00 AM 51.6°F10.9°C 49.8°F9.9°C 93% 14.0 mph W22.5 kmh W 29.0 mph46.7 kmh 29.30 in992.2 mb 0.00 in0.0 mm 0.00 in0.0 mm 0.00 in0.0 mm
11:03 AM 51.6°F10.9°C 49.6°F9.8°C 93% 14.0 mph W22.5 kmh W 29.0 mph46.7 kmh 29.30 in992.2 mb 0.00 in0.0 mm 0.00 in0.0 mm 0.00 in0.0 mm
11:06 AM 51.6°F10.9°C 49.6°F9.8°C 93% 14.0 mph W22.5 kmh W 29.0 mph46.7 kmh 29.30 in992.2 mb 0.00 in0.0 mm 0.00 in0.0 mm 0.00 in0.0 mm
11:09 AM 51.6°F10.9°C 50.0°F10.0°C 94% 14.0 mph W22.5 kmh W 29.0 mph46.7 kmh 29.30 in992.2 mb 0.00 in0.0 mm 0.00 in0.0 mm 0.00 in0.0 mm
11:12 AM 51.6°F10.9°C 49.6°F9.8°C 93% 13.0 mph W20.9 kmh W 29.0 mph46.7 kmh 29.31 in992.6 mb 0.00 in0.0 mm 0.00 in0.0 mm 0.00 in0.0 mm
11:15 AM 51.6°F10.9°C 50.0°F10.0°C 94% 13.0 mph W20.9 kmh W 28.0 mph45.1 kmh 29.31 in992.6 mb 0.00 in0.0 mm 0.00 in0.0 mm 0.00 in0.0 mm
11:18 AM 51.6°F10.9°C 50.0°F10.0°C 94% 13.0 mph W20.9 kmh W 28.0 mph45.1 kmh 29.32 in992.9 mb 0.00 in0.0 mm 0.00 in0.0 mm 0.00 in0.0 mm
11:21 AM 51.6°F10.9°C 50.0°F10.0°C 94% 14.0 mph W22.5 kmh W 31.0 mph49.9 kmh 29.32 in992.9 mb 0.00 in0.0 mm 0.00 in0.0 mm 0.00 in0.0 mm
11:24 AM -90.0°F-67.8°C 50.0°F10.0°C 94% 14.0 mph W22.5 kmh W 31.0 mph49.9 kmh 29.32 in992.9 mb 0.00 in0.0 mm 0.00 in0.0 mm 0.00 in0.0 mm
11:27 AM -90.0°F-67.8°C 50.0°F10.0°C 94% 14.0 mph W22.5 kmh W 31.0 mph49.9 kmh 29.32 in992.9 mb 0.00 in0.0 mm 0.00 in0.0 mm 0.00 in0.0 mm
11:30 AM -90.0°F-67.8°C 50.0°F10.0°C 94% 14.0 mph W22.5 kmh W 29.0 mph46.7 kmh 29.32 in992.9 mb 0.00 in0.0 mm 0.00 in0.0 mm 0.00 in0.0 mm
11:33 AM -90.0°F-67.8°C 50.0°F10.0°C 94% 13.0 mph W20.9 kmh W 30.0 mph48.3 kmh 29.33 in993.2 mb 0.00 in0.0 mm 0.00 in0.0 mm 0.00 in0.0 mm
11:36 AM -90.0°F-67.8°C 50.0°F10.0°C 94% 13.0 mph W20.9 kmh W 30.0 mph48.3 kmh 29.34 in993.6 mb 0.00 in0.0 mm 0.00 in0.0 mm 0.00 in0.0 mm
11:39 AM -90.0°F-67.8°C 50.0°F10.0°C 94% 12.0 mph W19.3 kmh W 30.0 mph48.3 kmh 29.34 in993.6 mb 0.00 in0.0 mm 0.00 in0.0 mm 0.00 in0.0 mm
11:42 AM -90.0°F-67.8°C 50.0°F10.0°C 94% 11.0 mph W17.7 kmh W 24.0 mph38.6 kmh 29.34 in993.6 mb 0.00 in0.0 mm 0.00 in0.0 mm 0.00 in0.0 mm
11:45 AM -90.0°F-67.8°C 50.0°F10.0°C 94% 11.0 mph W17.7 kmh W 24.0 mph38.6 kmh 29.35 in993.9 mb 0.00 in0.0 mm 0.00 in0.0 mm 0.00 in0.0 mm
11:48 AM -90.0°F-67.8°C 50.0°F10.0°C 94% 11.0 mph W17.7 kmh W 25.0 mph40.2 kmh 29.35 in993.9 mb 0.00 in0.0 mm 0.00 in0.0 mm 0.00 in0.0 mm
11:51 AM -90.0°F-67.8°C 50.0°F10.0°C 94% 11.0 mph W17.7 kmh W 25.0 mph40.2 kmh 29.35 in993.9 mb 0.00 in0.0 mm 0.00 in0.0 mm 0.00 in0.0 mm
11:54 AM -90.0°F-67.8°C 50.0°F10.0°C 94% 11.0 mph W17.7 kmh W 25.0 mph40.2 kmh 29.35 in993.9 mb 0.00 in0.0 mm 0.00 in0.0 mm 0.00 in0.0 mm
11:57 AM -90.0°F-67.8°C 50.0°F10.0°C 94% 11.0 mph W17.7 kmh W 25.0 mph40.2 kmh 29.36 in994.2 mb 0.00 in0.0 mm 0.00 in0.0 mm 0.00 in0.0 mm
12:00 PM -90.0°F-67.8°C 50.0°F10.0°C 94% 12.0 mph W19.3 kmh W 30.0 mph48.3 kmh 29.36 in994.2 mb 0.00 in0.0 mm 0.00 in0.0 mm 0.00 in0.0 mm
12:03 PM -90.0°F-67.8°C 50.0°F10.0°C 94% 12.0 mph W19.3 kmh W 30.0 mph48.3 kmh 29.36 in994.2 mb 0.00 in0.0 mm 0.00 in0.0 mm 0.00 in0.0 mm
12:06 PM -90.0°F-67.8°C 50.0°F10.0°C 94% 13.0 mph W20.9 kmh W 30.0 mph48.3 kmh 29.36 in994.2 mb 0.00 in0.0 mm 0.00 in0.0 mm 0.00 in0.0 mm
12:09 PM -90.0°F-67.8°C 50.0°F10.0°C 94% 13.0 mph W20.9 kmh W 30.0 mph48.3 kmh 29.37 in994.6 mb 0.00 in0.0 mm 0.00 in0.0 mm 0.00 in0.0 mm
12:12 PM -90.0°F-67.8°C 50.0°F10.0°C 94% 12.0 mph W19.3 kmh W 27.0 mph43.5 kmh 29.37 in994.6 mb 0.00 in0.0 mm 0.00 in0.0 mm 0.00 in0.0 mm
12:15 PM -90.0°F-67.8°C 50.0°F10.0°C 94% 12.0 mph W19.3 kmh W 27.0 mph43.5 kmh 29.37 in994.6 mb 0.00 in0.0 mm 0.00 in0.0 mm 0.00 in0.0 mm
12:18 PM -90.0°F-67.8°C 50.0°F10.0°C 94% 11.0 mph W17.7 kmh W 24.0 mph38.6 kmh 29.37 in994.6 mb 0.00 in0.0 mm 0.00 in0.0 mm 0.00 in0.0 mm
12:21 PM -90.0°F-67.8°C 50.0°F10.0°C 94% 11.0 mph W17.7 kmh W 22.0 mph35.4 kmh 29.37 in994.6 mb 0.00 in0.0 mm 0.00 in0.0 mm 0.00 in0.0 mm
12:24 PM -90.0°F-67.8°C 50.0°F10.0°C 94% 12.0 mph W19.3 kmh W 29.0 mph46.7 kmh 29.38 in994.9 mb 0.00 in0.0 mm 0.00 in0.0 mm 0.00 in0.0 mm
12:27 PM -90.0°F-67.8°C 50.0°F10.0°C 94% 13.0 mph W20.9 kmh W 36.0 mph57.9 kmh 29.39 in995.3 mb 0.00 in0.0 mm 0.00 in0.0 mm 0.00 in0.0 mm
12:30 PM -90.0°F-67.8°C 50.0°F10.0°C 94% 13.0 mph WNW20.9 kmh WNW 36.0 mph57.9 kmh 29.39 in995.3 mb 0.00 in0.0 mm 0.00 in0.0 mm 0.00 in0.0 mm
12:33 PM -90.0°F-67.8°C 50.0°F10.0°C 94% 12.0 mph WNW19.3 kmh WNW 36.0 mph57.9 kmh 29.39 in995.3 mb 0.00 in0.0 mm 0.00 in0.0 mm 0.00 in0.0 mm
12:36 PM 53.1°F11.7°C 51.6°F10.9°C 95% 10.0 mph WNW16.1 kmh WNW 36.0 mph57.9 kmh 29.40 in995.6 mb 0.00 in0.0 mm 0.00 in0.0 mm 0.00 in0.0 mm
12:39 PM 53.1°F11.7°C 52.0°F11.1°C 96% 9.0 mph WNW14.5 kmh WNW 24.0 mph38.6 kmh 29.40 in995.6 mb 0.16 in4.1 mm 3.20 in81.3 mm 0.16 in4.1 mm
12:42 PM 53.1°F11.7°C 52.0°F11.1°C 96% 9.0 mph WNW14.5 kmh WNW 24.0 mph38.6 kmh 29.40 in995.6 mb 0.16 in4.1 mm 0.00 in0.0 mm 0.16 in4.1 mm
12:45 PM 53.1°F11.7°C 52.0°F11.1°C 96% 10.0 mph WNW16.1 kmh WNW 29.0 mph46.7 kmh 29.41 in995.9 mb 0.16 in4.1 mm 0.00 in0.0 mm 0.16 in4.1 mm
12:48 PM 53.1°F11.7°C 52.0°F11.1°C 96% 11.0 mph WNW17.7 kmh WNW 29.0 mph46.7 kmh 29.41 in995.9 mb 0.17 in4.3 mm 0.20 in5.1 mm 0.17 in4.3 mm
12:49 PM 53.0°F11.7°C 51.9°F11.1°C 96% 14.0 mph WNW22.5 kmh WNW 22.0 mph35.4 kmh 29.41 in995.9 mb 0.17 in4.3 mm 0.00 in0.0 mm 0.17 in4.3 mm
12:50 PM 53.0°F11.7°C 51.9°F11.1°C 96% 15.0 mph WNW24.1 kmh WNW 22.0 mph35.4 kmh 29.41 in995.9 mb 0.17 in4.3 mm 0.00 in0.0 mm 0.17 in4.3 mm
12:51 PM 53.0°F11.7°C 51.9°F11.1°C 96% 15.0 mph WNW24.1 kmh WNW 22.0 mph35.4 kmh 29.41 in995.9 mb 0.17 in4.3 mm 0.00 in0.0 mm 0.17 in4.3 mm
12:52 PM 53.0°F11.7°C 51.9°F11.1°C 96% 16.0 mph WNW25.7 kmh WNW 22.0 mph35.4 kmh 29.41 in995.9 mb 0.17 in4.3 mm 0.00 in0.0 mm 0.17 in4.3 mm
12:53 PM 53.0°F11.7°C 51.6°F10.9°C 95% 18.0 mph WNW29.0 kmh WNW 33.0 mph53.1 kmh 29.41 in995.9 mb 0.17 in4.3 mm 0.00 in0.0 mm 0.17 in4.3 mm
12:54 PM 53.0°F11.7°C 51.6°F10.9°C 95% 18.0 mph WNW29.0 kmh WNW 33.0 mph53.1 kmh 29.41 in995.9 mb 0.17 in4.3 mm 0.00 in0.0 mm 0.17 in4.3 mm
12:55 PM 53.0°F11.7°C 51.6°F10.9°C 95% 18.0 mph WNW29.0 kmh WNW 33.0 mph53.1 kmh 29.41 in995.9 mb 0.17 in4.3 mm 0.00 in0.0 mm 0.17 in4.3 mm
12:56 PM 53.0°F11.7°C 51.6°F10.9°C 95% 19.0 mph WNW30.6 kmh WNW 33.0 mph53.1 kmh 29.42 in996.3 mb 0.17 in4.3 mm 0.00 in0.0 mm 0.17 in4.3 mm
12:57 PM 53.0°F11.7°C 51.6°F10.9°C 95% 18.0 mph WNW29.0 kmh WNW 33.0 mph53.1 kmh 29.42 in996.3 mb 0.17 in4.3 mm 0.00 in0.0 mm 0.17 in4.3 mm
12:58 PM 53.0°F11.7°C 51.6°F10.9°C 95% 19.0 mph WNW30.6 kmh WNW 33.0 mph53.1 kmh 29.42 in996.3 mb 0.17 in4.3 mm 0.00 in0.0 mm 0.17 in4.3 mm
12:59 PM 53.0°F11.7°C 51.6°F10.9°C 95% 18.0 mph WNW29.0 kmh WNW 33.0 mph53.1 kmh 29.42 in996.3 mb 0.17 in4.3 mm 0.00 in0.0 mm 0.17 in4.3 mm
01:00 PM 53.1°F11.7°C 51.7°F10.9°C 95% 18.0 mph WNW29.0 kmh WNW 33.0 mph53.1 kmh 29.43 in996.6 mb 0.17 in4.3 mm 0.00 in0.0 mm 0.17 in4.3 mm
01:01 PM 53.1°F11.7°C 51.7°F10.9°C 95% 17.0 mph WNW27.4 kmh WNW 33.0 mph53.1 kmh 29.43 in996.6 mb 0.17 in4.3 mm 0.00 in0.0 mm 0.17 in4.3 mm
01:06 PM 53.2°F11.8°C 51.8°F11.0°C 95% 12.0 mph WNW19.3 kmh WNW 23.0 mph37.0 kmh 29.43 in996.6 mb 0.17 in4.3 mm 0.00 in0.0 mm 0.17 in4.3 mm
01:09 PM 53.2°F11.8°C 51.8°F11.0°C 95% 13.0 mph WNW20.9 kmh WNW 25.0 mph40.2 kmh 29.44 in997.0 mb 0.17 in4.3 mm 0.00 in0.0 mm 0.17 in4.3 mm
01:10 PM 53.1°F11.7°C 51.4°F10.8°C 94% 13.0 mph WNW20.9 kmh WNW 17.0 mph27.4 kmh 29.44 in997.0 mb 0.17 in4.3 mm 0.00 in0.0 mm 0.17 in4.3 mm
01:11 PM 53.1°F11.7°C 51.4°F10.8°C 94% 14.0 mph WNW22.5 kmh WNW 18.0 mph29.0 kmh 29.44 in997.0 mb 0.17 in4.3 mm 0.00 in0.0 mm 0.17 in4.3 mm
01:12 PM 53.1°F11.7°C 51.4°F10.8°C 94% 14.0 mph WNW22.5 kmh WNW 18.0 mph29.0 kmh 29.44 in997.0 mb 0.17 in4.3 mm 0.00 in0.0 mm 0.17 in4.3 mm
01:13 PM 53.1°F11.7°C 51.4°F10.8°C 94% 15.0 mph WNW24.1 kmh WNW 19.0 mph30.6 kmh 29.44 in997.0 mb 0.17 in4.3 mm 0.00 in0.0 mm 0.17 in4.3 mm
01:14 PM 53.1°F11.7°C 51.4°F10.8°C 94% 16.0 mph WNW25.7 kmh WNW 20.0 mph32.2 kmh 29.44 in997.0 mb 0.17 in4.3 mm 0.00 in0.0 mm 0.17 in4.3 mm
01:15 PM 53.1°F11.7°C 51.4°F10.8°C 94% 16.0 mph W25.7 kmh W 20.0 mph32.2 kmh 29.45 in997.3 mb 0.17 in4.3 mm 0.00 in0.0 mm 0.17 in4.3 mm
01:18 PM 53.1°F11.7°C 51.4°F10.8°C 94% 14.0 mph W22.5 kmh W 20.0 mph32.2 kmh 29.45 in997.3 mb 0.17 in4.3 mm 0.00 in0.0 mm 0.17 in4.3 mm
01:19 PM 53.1°F11.7°C 51.4°F10.8°C 94% 19.0 mph WNW30.6 kmh WNW 23.0 mph37.0 kmh 29.45 in997.3 mb 0.17 in4.3 mm 0.00 in0.0 mm 0.17 in4.3 mm
01:20 PM 53.1°F11.7°C 51.4°F10.8°C 94% 19.0 mph WNW30.6 kmh WNW 23.0 mph37.0 kmh 29.45 in997.3 mb 0.17 in4.3 mm 0.00 in0.0 mm 0.17 in4.3 mm
01:27 PM 52.9°F11.6°C 51.1°F10.6°C 94% 13.0 mph WNW20.9 kmh WNW 24.0 mph38.6 kmh 29.46 in997.6 mb 0.17 in4.3 mm 0.00 in0.0 mm 0.17 in4.3 mm
01:30 PM 52.7°F11.5°C 51.1°F10.6°C 94% 11.0 mph WNW17.7 kmh WNW 27.0 mph43.5 kmh 29.46 in997.6 mb 0.17 in4.3 mm 0.00 in0.0 mm 0.17 in4.3 mm
01:33 PM 52.5°F11.4°C 50.9°F10.5°C 94% 12.0 mph WNW19.3 kmh WNW 31.0 mph49.9 kmh 29.47 in998.0 mb 0.17 in4.3 mm 0.00 in0.0 mm 0.17 in4.3 mm
01:36 PM 52.3°F11.3°C 50.7°F10.4°C 94% 12.0 mph WNW19.3 kmh WNW 31.0 mph49.9 kmh 29.47 in998.0 mb 0.01 in0.3 mm 0.00 in0.0 mm 0.17 in4.3 mm
01:39 PM 52.3°F11.3°C 50.7°F10.4°C 94% 11.0 mph WNW17.7 kmh WNW 31.0 mph49.9 kmh 29.47 in998.0 mb 0.01 in0.3 mm 0.00 in0.0 mm 0.17 in4.3 mm
01:42 PM 52.3°F11.3°C 50.5°F10.3°C 94% 10.0 mph WNW16.1 kmh WNW 26.0 mph41.8 kmh 29.48 in998.3 mb 0.01 in0.3 mm 0.00 in0.0 mm 0.17 in4.3 mm
01:45 PM 52.2°F11.2°C 50.5°F10.3°C 94% 10.0 mph WNW16.1 kmh WNW 27.0 mph43.5 kmh 29.48 in998.3 mb 0.00 in0.0 mm 0.00 in0.0 mm 0.17 in4.3 mm
01:48 PM 52.2°F11.2°C 50.5°F10.3°C 94% 11.0 mph WNW17.7 kmh WNW 27.0 mph43.5 kmh 29.48 in998.3 mb 0.00 in0.0 mm 0.00 in0.0 mm 0.17 in4.3 mm
01:51 PM 52.3°F11.3°C 50.4°F10.2°C 93% 12.0 mph WNW19.3 kmh WNW 33.0 mph53.1 kmh 29.49 in998.6 mb 0.00 in0.0 mm 0.00 in0.0 mm 0.17 in4.3 mm
01:54 PM 52.5°F11.4°C 50.5°F10.3°C 93% 11.0 mph WNW17.7 kmh WNW 33.0 mph53.1 kmh 29.49 in998.6 mb 0.00 in0.0 mm 0.00 in0.0 mm 0.17 in4.3 mm
01:57 PM 52.7°F11.5°C 50.7°F10.4°C 93% 10.0 mph WNW16.1 kmh WNW 33.0 mph53.1 kmh 29.49 in998.6 mb 0.00 in0.0 mm 0.00 in0.0 mm 0.17 in4.3 mm
02:00 PM 52.7°F11.5°C 50.4°F10.2°C 92% 11.0 mph NW17.7 kmh NW 33.0 mph53.1 kmh 29.50 in999.0 mb 0.00 in0.0 mm 0.00 in0.0 mm 0.17 in4.3 mm
02:03 PM 52.7°F11.5°C 50.2°F10.1°C 91% 10.0 mph NW16.1 kmh NW 20.0 mph32.2 kmh 29.49 in998.6 mb 0.00 in0.0 mm 0.00 in0.0 mm 0.17 in4.3 mm
02:06 PM 52.5°F11.4°C 50.0°F10.0°C 91% 10.0 mph NW16.1 kmh NW 22.0 mph35.4 kmh 29.50 in999.0 mb 0.00 in0.0 mm 0.00 in0.0 mm 0.17 in4.3 mm
02:09 PM 52.5°F11.4°C 50.0°F10.0°C 91% 10.0 mph NW16.1 kmh NW 26.0 mph41.8 kmh 29.50 in999.0 mb 0.00 in0.0 mm 0.00 in0.0 mm 0.17 in4.3 mm
02:12 PM 52.5°F11.4°C 50.0°F10.0°C 91% 9.0 mph NW14.5 kmh NW 27.0 mph43.5 kmh 29.51 in999.3 mb 0.00 in0.0 mm 0.00 in0.0 mm 0.17 in4.3 mm
02:15 PM 52.5°F11.4°C 49.8°F9.9°C 90% 10.0 mph NW16.1 kmh NW 28.0 mph45.1 kmh 29.51 in999.3 mb 0.00 in0.0 mm 0.00 in0.0 mm 0.17 in4.3 mm
02:18 PM 52.7°F11.5°C 49.5°F9.7°C 89% 10.0 mph NW16.1 kmh NW 28.0 mph45.1 kmh 29.52 in999.7 mb 0.00 in0.0 mm 0.00 in0.0 mm 0.17 in4.3 mm
02:21 PM 52.9°F11.6°C 49.6°F9.8°C 89% 10.0 mph NW16.1 kmh NW 28.0 mph45.1 kmh 29.51 in999.3 mb 0.00 in0.0 mm 0.00 in0.0 mm 0.17 in4.3 mm
02:24 PM 52.9°F11.6°C 49.6°F9.8°C 89% 10.0 mph NW16.1 kmh NW 28.0 mph45.1 kmh 29.52 in999.7 mb 0.00 in0.0 mm 0.00 in0.0 mm 0.17 in4.3 mm
02:27 PM 52.9°F11.6°C 49.5°F9.7°C 88% 9.0 mph WNW14.5 kmh WNW 24.0 mph38.6 kmh 29.53 in1000.0 mb 0.00 in0.0 mm 0.00 in0.0 mm 0.17 in4.3 mm
02:30 PM 52.9°F11.6°C 49.8°F9.9°C 89% 9.0 mph WNW14.5 kmh WNW 24.0 mph38.6 kmh 29.53 in1000.0 mb 0.00 in0.0 mm 0.00 in0.0 mm 0.17 in4.3 mm
02:33 PM 52.9°F11.6°C 49.3°F9.6°C 88% 10.0 mph WNW16.1 kmh WNW 26.0 mph41.8 kmh 29.53 in1000.0 mb 0.00 in0.0 mm 0.00 in0.0 mm 0.17 in4.3 mm
02:36 PM 52.7°F11.5°C 49.3°F9.6°C 88% 10.0 mph WNW16.1 kmh WNW 26.0 mph41.8 kmh 29.53 in1000.0 mb 0.00 in0.0 mm 0.00 in0.0 mm 0.17 in4.3 mm
02:39 PM 52.5°F11.4°C 49.1°F9.5°C 88% 12.0 mph WNW19.3 kmh WNW 29.0 mph46.7 kmh 29.54 in1000.3 mb 0.00 in0.0 mm 0.00 in0.0 mm 0.17 in4.3 mm
02:42 PM 52.5°F11.4°C 49.1°F9.5°C 88% 12.0 mph WNW19.3 kmh WNW 29.0 mph46.7 kmh 29.54 in1000.3 mb 0.00 in0.0 mm 0.00 in0.0 mm 0.17 in4.3 mm
02:45 PM 52.3°F11.3°C 48.9°F9.4°C 88% 13.0 mph WNW20.9 kmh WNW 29.0 mph46.7 kmh 29.55 in1000.7 mb 0.00 in0.0 mm 0.00 in0.0 mm 0.17 in4.3 mm
02:48 PM 52.2°F11.2°C 49.1°F9.5°C 89% 12.0 mph WNW19.3 kmh WNW 27.0 mph43.5 kmh 29.55 in1000.7 mb 0.00 in0.0 mm 0.00 in0.0 mm 0.17 in4.3 mm
02:51 PM 52.0°F11.1°C 48.9°F9.4°C 89% 11.0 mph WNW17.7 kmh WNW 27.0 mph43.5 kmh 29.55 in1000.7 mb 0.00 in0.0 mm 0.00 in0.0 mm 0.17 in4.3 mm
02:54 PM 52.0°F11.1°C 48.9°F9.4°C 89% 9.0 mph WNW14.5 kmh WNW 21.0 mph33.8 kmh 29.55 in1000.7 mb 0.00 in0.0 mm 0.00 in0.0 mm 0.17 in4.3 mm
02:57 PM 52.0°F11.1°C 48.6°F9.2°C 88% 11.0 mph WNW17.7 kmh WNW 35.0 mph56.3 kmh 29.55 in1000.7 mb 0.00 in0.0 mm 0.00 in0.0 mm 0.17 in4.3 mm
03:00 PM 52.2°F11.2°C 48.7°F9.3°C 88% 11.0 mph WNW17.7 kmh WNW 35.0 mph56.3 kmh 29.56 in1001.0 mb 0.00 in0.0 mm 0.00 in0.0 mm 0.17 in4.3 mm
03:03 PM 52.2°F11.2°C 48.7°F9.3°C 88% 12.0 mph WNW19.3 kmh WNW 35.0 mph56.3 kmh 29.56 in1001.0 mb 0.00 in0.0 mm 0.00 in0.0 mm 0.17 in4.3 mm
03:06 PM 52.2°F11.2°C 48.7°F9.3°C 88% 11.0 mph WNW17.7 kmh WNW 25.0 mph40.2 kmh 29.56 in1001.0 mb 0.00 in0.0 mm 0.00 in0.0 mm 0.17 in4.3 mm
03:09 PM 52.2°F11.2°C 48.7°F9.3°C 88% 12.0 mph WNW19.3 kmh WNW 29.0 mph46.7 kmh 29.57 in1001.4 mb 0.00 in0.0 mm 0.00 in0.0 mm 0.17 in4.3 mm
03:12 PM 52.2°F11.2°C 48.7°F9.3°C 88% 13.0 mph WNW20.9 kmh WNW 29.0 mph46.7 kmh 29.57 in1001.4 mb 0.00 in0.0 mm 0.00 in0.0 mm 0.17 in4.3 mm
03:15 PM 52.2°F11.2°C 48.4°F9.1°C 87% 13.0 mph WNW20.9 kmh WNW 29.0 mph46.7 kmh 29.58 in1001.7 mb 0.00 in0.0 mm 0.00 in0.0 mm 0.17 in4.3 mm
03:18 PM 52.2°F11.2°C 48.7°F9.3°C 88% 12.0 mph WNW19.3 kmh WNW 27.0 mph43.5 kmh 29.58 in1001.7 mb 0.00 in0.0 mm 0.00 in0.0 mm 0.17 in4.3 mm
03:21 PM 52.2°F11.2°C 48.4°F9.1°C 87% 11.0 mph WNW17.7 kmh WNW 27.0 mph43.5 kmh 29.59 in1002.0 mb 0.00 in0.0 mm 0.00 in0.0 mm 0.17 in4.3 mm
03:24 PM 52.2°F11.2°C 48.4°F9.1°C 87% 10.0 mph WNW16.1 kmh WNW 24.0 mph38.6 kmh 29.59 in1002.0 mb 0.00 in0.0 mm 0.00 in0.0 mm 0.17 in4.3 mm
03:27 PM 52.2°F11.2°C 48.4°F9.1°C 87% 10.0 mph NW16.1 kmh NW 23.0 mph37.0 kmh 29.59 in1002.0 mb 0.00 in0.0 mm 0.00 in0.0 mm 0.17 in4.3 mm
03:30 PM 52.0°F11.1°C 48.2°F9.0°C 87% 10.0 mph NW16.1 kmh NW 23.0 mph37.0 kmh 29.60 in1002.4 mb 0.00 in0.0 mm 0.00 in0.0 mm 0.17 in4.3 mm
03:33 PM 52.0°F11.1°C 48.2°F9.0°C 87% 11.0 mph NW17.7 kmh NW 30.0 mph48.3 kmh 29.60 in1002.4 mb 0.00 in0.0 mm 0.00 in0.0 mm 0.17 in4.3 mm
03:36 PM 52.2°F11.2°C 48.4°F9.1°C 87% 12.0 mph WNW19.3 kmh WNW 30.0 mph48.3 kmh 29.60 in1002.4 mb 0.00 in0.0 mm 0.00 in0.0 mm 0.17 in4.3 mm
03:39 PM 52.2°F11.2°C 48.2°F9.0°C 86% 12.0 mph WNW19.3 kmh WNW 30.0 mph48.3 kmh 29.60 in1002.4 mb 0.00 in0.0 mm 0.00 in0.0 mm 0.17 in4.3 mm
03:42 PM 52.3°F11.3°C 48.6°F9.2°C 87% 11.0 mph WNW17.7 kmh WNW 28.0 mph45.1 kmh 29.60 in1002.4 mb 0.00 in0.0 mm 0.00 in0.0 mm 0.17 in4.3 mm
03:45 PM 52.5°F11.4°C 48.4°F9.1°C 86% 11.0 mph WNW17.7 kmh WNW 28.0 mph45.1 kmh 29.60 in1002.4 mb 0.00 in0.0 mm 0.00 in0.0 mm 0.17 in4.3 mm
03:48 PM 52.9°F11.6°C 48.7°F9.3°C 86% 11.0 mph WNW17.7 kmh WNW 26.0 mph41.8 kmh 29.60 in1002.4 mb 0.00 in0.0 mm 0.00 in0.0 mm 0.17 in4.3 mm
03:51 PM 53.1°F11.7°C 48.9°F9.4°C 86% 11.0 mph WNW17.7 kmh WNW 26.0 mph41.8 kmh 29.60 in1002.4 mb 0.00 in0.0 mm 0.00 in0.0 mm 0.17 in4.3 mm
03:54 PM 53.1°F11.7°C 48.7°F9.3°C 85% 11.0 mph WNW17.7 kmh WNW 26.0 mph41.8 kmh 29.60 in1002.4 mb 0.00 in0.0 mm 0.00 in0.0 mm 0.17 in4.3 mm
03:57 PM 53.1°F11.7°C 48.4°F9.1°C 84% 11.0 mph NW17.7 kmh NW 26.0 mph41.8 kmh 29.60 in1002.4 mb 0.00 in0.0 mm 0.00 in0.0 mm 0.17 in4.3 mm
04:00 PM 52.9°F11.6°C 48.0°F8.9°C 84% 9.0 mph NW14.5 kmh NW 21.0 mph33.8 kmh 29.61 in1002.7 mb 0.00 in0.0 mm 0.00 in0.0 mm 0.17 in4.3 mm
04:03 PM 52.5°F11.4°C 47.8°F8.8°C 84% 9.0 mph NW14.5 kmh NW 19.0 mph30.6 kmh 29.61 in1002.7 mb 0.00 in0.0 mm 0.00 in0.0 mm 0.17 in4.3 mm
04:06 PM 52.3°F11.3°C 47.7°F8.7°C 84% 10.0 mph WNW16.1 kmh WNW 26.0 mph41.8 kmh 29.61 in1002.7 mb 0.00 in0.0 mm 0.00 in0.0 mm 0.17 in4.3 mm
04:09 PM 52.2°F11.2°C 47.5°F8.6°C 84% 10.0 mph WNW16.1 kmh WNW 26.0 mph41.8 kmh 29.62 in1003.0 mb 0.00 in0.0 mm 0.00 in0.0 mm 0.17 in4.3 mm
04:12 PM 52.2°F11.2°C 47.5°F8.6°C 84% 11.0 mph WNW17.7 kmh WNW 26.0 mph41.8 kmh 29.62 in1003.0 mb 0.00 in0.0 mm 0.00 in0.0 mm 0.17 in4.3 mm
04:15 PM 52.2°F11.2°C 47.5°F8.6°C 84% 12.0 mph WNW19.3 kmh WNW 30.0 mph48.3 kmh 29.62 in1003.0 mb 0.00 in0.0 mm 0.00 in0.0 mm 0.17 in4.3 mm
04:18 PM 52.0°F11.1°C 47.3°F8.5°C 84% 12.0 mph WNW19.3 kmh WNW 30.0 mph48.3 kmh 29.63 in1003.4 mb 0.00 in0.0 mm 0.00 in0.0 mm 0.17 in4.3 mm
04:21 PM 52.0°F11.1°C 47.5°F8.6°C 85% 12.0 mph WNW19.3 kmh WNW 30.0 mph48.3 kmh 29.64 in1003.7 mb 0.00 in0.0 mm 0.00 in0.0 mm 0.17 in4.3 mm
04:24 PM 51.6°F10.9°C 47.3°F8.5°C 85% 12.0 mph WNW19.3 kmh WNW 30.0 mph48.3 kmh 29.64 in1003.7 mb 0.00 in0.0 mm 0.00 in0.0 mm 0.17 in4.3 mm
04:27 PM 51.6°F10.9°C 47.3°F8.5°C 85% 11.0 mph WNW17.7 kmh WNW 26.0 mph41.8 kmh 29.64 in1003.7 mb 0.00 in0.0 mm 0.00 in0.0 mm 0.17 in4.3 mm
04:30 PM 51.4°F10.8°C 47.3°F8.5°C 86% 11.0 mph WNW17.7 kmh WNW 26.0 mph41.8 kmh 29.64 in1003.7 mb 0.00 in0.0 mm 0.00 in0.0 mm 0.17 in4.3 mm
04:33 PM 51.1°F10.6°C 47.3°F8.5°C 87% 9.0 mph WNW14.5 kmh WNW 23.0 mph37.0 kmh 29.65 in1004.1 mb 0.00 in0.0 mm 0.00 in0.0 mm 0.17 in4.3 mm
04:36 PM 50.9°F10.5°C 47.1°F8.4°C 87% 8.0 mph WNW12.9 kmh WNW 23.0 mph37.0 kmh 29.65 in1004.1 mb 0.00 in0.0 mm 0.00 in0.0 mm 0.17 in4.3 mm
04:39 PM 50.7°F10.4°C 47.3°F8.5°C 88% 8.0 mph NW12.9 kmh NW 23.0 mph37.0 kmh 29.66 in1004.4 mb 0.00 in0.0 mm 0.00 in0.0 mm 0.17 in4.3 mm
04:42 PM 50.4°F10.2°C 47.3°F8.5°C 89% 7.0 mph NW11.3 kmh NW 21.0 mph33.8 kmh 29.65 in1004.1 mb 0.01 in0.3 mm 0.20 in5.1 mm 0.17 in4.3 mm
04:45 PM 50.2°F10.1°C 47.1°F8.4°C 89% 7.0 mph NW11.3 kmh NW 24.0 mph38.6 kmh 29.65 in1004.1 mb 0.01 in0.3 mm 0.00 in0.0 mm 0.17 in4.3 mm
04:48 PM 50.0°F10.0°C 47.1°F8.4°C 90% 7.0 mph NW11.3 kmh NW 24.0 mph38.6 kmh 29.66 in1004.4 mb 0.01 in0.3 mm 0.00 in0.0 mm 0.17 in4.3 mm
04:51 PM 49.8°F9.9°C 47.1°F8.4°C 90% 7.0 mph NW11.3 kmh NW 24.0 mph38.6 kmh 29.66 in1004.4 mb 0.01 in0.3 mm 0.00 in0.0 mm 0.17 in4.3 mm
05:03 PM 50.0°F10.0°C 47.1°F8.4°C 90% 11.0 mph W17.7 kmh W 21.0 mph33.8 kmh 29.67 in1004.7 mb 0.01 in0.3 mm 0.00 in0.0 mm 0.17 in4.3 mm
05:18 PM 48.9°F9.4°C 46.4°F8.0°C 91% 13.0 mph WNW20.9 kmh WNW 31.0 mph49.9 kmh 29.67 in1004.7 mb 0.02 in0.5 mm 0.04 in1.0 mm 0.18 in4.6 mm
05:21 PM 48.7°F9.3°C 46.2°F7.9°C 91% 12.0 mph WNW19.3 kmh WNW 25.0 mph40.2 kmh 29.68 in1005.1 mb 0.02 in0.5 mm 0.00 in0.0 mm 0.18 in4.6 mm
05:24 PM 48.7°F9.3°C 46.0°F7.8°C 90% 10.0 mph WNW16.1 kmh WNW 24.0 mph38.6 kmh 29.68 in1005.1 mb 0.02 in0.5 mm 0.00 in0.0 mm 0.18 in4.6 mm
05:27 PM 48.7°F9.3°C 46.0°F7.8°C 90% 10.0 mph WNW16.1 kmh WNW 24.0 mph38.6 kmh 29.68 in1005.1 mb 0.02 in0.5 mm 0.00 in0.0 mm 0.18 in4.6 mm
05:30 PM 48.9°F9.4°C 46.0°F7.8°C 90% 10.0 mph WNW16.1 kmh WNW 20.0 mph32.2 kmh 29.69 in1005.4 mb 0.02 in0.5 mm 0.00 in0.0 mm 0.18 in4.6 mm
05:33 PM 48.9°F9.4°C 46.2°F7.9°C 90% 10.0 mph WNW16.1 kmh WNW 21.0 mph33.8 kmh 29.70 in1005.8 mb 0.02 in0.5 mm 0.00 in0.0 mm 0.18 in4.6 mm
05:36 PM 49.1°F9.5°C 46.2°F7.9°C 90% 11.0 mph WNW17.7 kmh WNW 29.0 mph46.7 kmh 29.70 in1005.8 mb 0.02 in0.5 mm 0.00 in0.0 mm 0.18 in4.6 mm
05:39 PM 49.1°F9.5°C 46.0°F7.8°C 89% 11.0 mph WNW17.7 kmh WNW 33.0 mph53.1 kmh 29.70 in1005.8 mb 0.02 in0.5 mm 0.00 in0.0 mm 0.18 in4.6 mm
05:42 PM 49.1°F9.5°C 46.0°F7.8°C 89% 11.0 mph WNW17.7 kmh WNW 33.0 mph53.1 kmh 29.70 in1005.8 mb 0.01 in0.3 mm 0.00 in0.0 mm 0.18 in4.6 mm
05:45 PM 49.3°F9.6°C 46.0°F7.8°C 89% 11.0 mph WNW17.7 kmh WNW 33.0 mph53.1 kmh 29.71 in1006.1 mb 0.01 in0.3 mm 0.00 in0.0 mm 0.18 in4.6 mm
05:48 PM 49.3°F9.6°C 46.2°F7.9°C 89% 11.0 mph WNW17.7 kmh WNW 29.0 mph46.7 kmh 29.71 in1006.1 mb 0.01 in0.3 mm 0.00 in0.0 mm 0.18 in4.6 mm
05:51 PM 49.3°F9.6°C 45.9°F7.7°C 88% 10.0 mph WNW16.1 kmh WNW 23.0 mph37.0 kmh 29.71 in1006.1 mb 0.01 in0.3 mm 0.00 in0.0 mm 0.18 in4.6 mm
05:54 PM 49.5°F9.7°C 46.0°F7.8°C 88% 10.0 mph WNW16.1 kmh WNW 23.0 mph37.0 kmh 29.72 in1006.4 mb 0.01 in0.3 mm 0.00 in0.0 mm 0.18 in4.6 mm
05:57 PM 49.5°F9.7°C 46.0°F7.8°C 88% 10.0 mph WNW16.1 kmh WNW 26.0 mph41.8 kmh 29.72 in1006.4 mb 0.01 in0.3 mm 0.00 in0.0 mm 0.18 in4.6 mm
06:00 PM 49.3°F9.6°C 45.7°F7.6°C 87% 10.0 mph WNW16.1 kmh WNW 26.0 mph41.8 kmh 29.72 in1006.4 mb 0.01 in0.3 mm 0.00 in0.0 mm 0.18 in4.6 mm
06:03 PM 49.3°F9.6°C 45.7°F7.6°C 87% 10.0 mph WNW16.1 kmh WNW 26.0 mph41.8 kmh 29.72 in1006.4 mb 0.01 in0.3 mm 0.00 in0.0 mm 0.18 in4.6 mm
06:06 PM 49.3°F9.6°C 45.1°F7.3°C 86% 10.0 mph WNW16.1 kmh WNW 23.0 mph37.0 kmh 29.72 in1006.4 mb 0.00 in0.0 mm 0.00 in0.0 mm 0.18 in4.6 mm
06:09 PM 49.1°F9.5°C 45.1°F7.3°C 86% 11.0 mph WNW17.7 kmh WNW 23.0 mph37.0 kmh 29.73 in1006.8 mb 0.00 in0.0 mm 0.00 in0.0 mm 0.18 in4.6 mm
06:12 PM 48.9°F9.4°C 45.0°F7.2°C 86% 10.0 mph WNW16.1 kmh WNW 23.0 mph37.0 kmh 29.73 in1006.8 mb 0.00 in0.0 mm 0.00 in0.0 mm 0.18 in4.6 mm
06:15 PM 48.9°F9.4°C 45.0°F7.2°C 86% 10.0 mph WNW16.1 kmh WNW 24.0 mph38.6 kmh 29.74 in1007.1 mb 0.00 in0.0 mm 0.00 in0.0 mm 0.18 in4.6 mm
06:18 PM 48.9°F9.4°C 45.3°F7.4°C 87% 10.0 mph WNW16.1 kmh WNW 24.0 mph38.6 kmh 29.74 in1007.1 mb 0.00 in0.0 mm 0.00 in0.0 mm 0.18 in4.6 mm
06:21 PM 48.9°F9.4°C 45.3°F7.4°C 87% 11.0 mph WNW17.7 kmh WNW 24.0 mph38.6 kmh 29.74 in1007.1 mb 0.00 in0.0 mm 0.00 in0.0 mm 0.18 in4.6 mm
06:24 PM 48.9°F9.4°C 45.0°F7.2°C 86% 11.0 mph WNW17.7 kmh WNW 28.0 mph45.1 kmh 29.74 in1007.1 mb 0.00 in0.0 mm 0.00 in0.0 mm 0.18 in4.6 mm
06:27 PM 48.9°F9.4°C 45.0°F7.2°C 86% 10.0 mph WNW16.1 kmh WNW 28.0 mph45.1 kmh 29.75 in1007.5 mb 0.00 in0.0 mm 0.00 in0.0 mm 0.18 in4.6 mm
06:30 PM 48.9°F9.4°C 45.0°F7.2°C 86% 10.0 mph WNW16.1 kmh WNW 28.0 mph45.1 kmh 29.74 in1007.1 mb 0.00 in0.0 mm 0.00 in0.0 mm 0.18 in4.6 mm
06:33 PM 48.9°F9.4°C 45.0°F7.2°C 86% 10.0 mph WNW16.1 kmh WNW 27.0 mph43.5 kmh 29.75 in1007.5 mb 0.00 in0.0 mm 0.00 in0.0 mm 0.18 in4.6 mm
06:36 PM 49.1°F9.5°C 45.1°F7.3°C 86% 10.0 mph WNW16.1 kmh WNW 27.0 mph43.5 kmh 29.75 in1007.5 mb 0.00 in0.0 mm 0.00 in0.0 mm 0.18 in4.6 mm
06:39 PM 49.1°F9.5°C 45.1°F7.3°C 86% 9.0 mph WNW14.5 kmh WNW 26.0 mph41.8 kmh 29.75 in1007.5 mb 0.00 in0.0 mm 0.00 in0.0 mm 0.18 in4.6 mm
06:42 PM 49.1°F9.5°C 45.1°F7.3°C 86% 10.0 mph WNW16.1 kmh WNW 26.0 mph41.8 kmh 29.76 in1007.8 mb 0.00 in0.0 mm 0.00 in0.0 mm 0.18 in4.6 mm
06:45 PM 48.9°F9.4°C 45.0°F7.2°C 86% 11.0 mph WNW17.7 kmh WNW 26.0 mph41.8 kmh 29.76 in1007.8 mb 0.00 in0.0 mm 0.00 in0.0 mm 0.18 in4.6 mm
06:48 PM 49.1°F9.5°C 45.1°F7.3°C 86% 11.0 mph WNW17.7 kmh WNW 26.0 mph41.8 kmh 29.77 in1008.1 mb 0.00 in0.0 mm 0.00 in0.0 mm 0.18 in4.6 mm
06:51 PM 49.3°F9.6°C 45.1°F7.3°C 86% 11.0 mph WNW17.7 kmh WNW 25.0 mph40.2 kmh 29.77 in1008.1 mb 0.00 in0.0 mm 0.00 in0.0 mm 0.18 in4.6 mm
06:54 PM 49.3°F9.6°C 45.1°F7.3°C 86% 10.0 mph WNW16.1 kmh WNW 22.0 mph35.4 kmh 29.77 in1008.1 mb 0.00 in0.0 mm 0.00 in0.0 mm 0.18 in4.6 mm
06:57 PM 49.1°F9.5°C 45.1°F7.3°C 86% 11.0 mph WNW17.7 kmh WNW 31.0 mph49.9 kmh 29.77 in1008.1 mb 0.00 in0.0 mm 0.00 in0.0 mm 0.18 in4.6 mm
07:00 PM 48.9°F9.4°C 45.0°F7.2°C 86% 11.0 mph W17.7 kmh W 31.0 mph49.9 kmh 29.77 in1008.1 mb 0.00 in0.0 mm 0.00 in0.0 mm 0.18 in4.6 mm
07:03 PM 48.9°F9.4°C 45.0°F7.2°C 86% 11.0 mph W17.7 kmh W 31.0 mph49.9 kmh 29.77 in1008.1 mb 0.00 in0.0 mm 0.00 in0.0 mm 0.18 in4.6 mm
07:06 PM 48.9°F9.4°C 45.0°F7.2°C 86% 9.0 mph WNW14.5 kmh WNW 31.0 mph49.9 kmh 29.77 in1008.1 mb 0.00 in0.0 mm 0.00 in0.0 mm 0.18 in4.6 mm
07:09 PM 48.9°F9.4°C 45.0°F7.2°C 86% 9.0 mph WNW14.5 kmh WNW 21.0 mph33.8 kmh 29.78 in1008.5 mb 0.00 in0.0 mm 0.00 in0.0 mm 0.18 in4.6 mm
07:12 PM 48.9°F9.4°C 45.0°F7.2°C 86% 9.0 mph WNW14.5 kmh WNW 21.0 mph33.8 kmh 29.78 in1008.5 mb 0.00 in0.0 mm 0.00 in0.0 mm 0.18 in4.6 mm
07:15 PM 48.9°F9.4°C 45.0°F7.2°C 86% 9.0 mph WNW14.5 kmh WNW 21.0 mph33.8 kmh 29.78 in1008.5 mb 0.00 in0.0 mm 0.00 in0.0 mm 0.18 in4.6 mm
07:18 PM 48.9°F9.4°C 44.6°F7.0°C 85% 9.0 mph WNW14.5 kmh WNW 20.0 mph32.2 kmh 29.78 in1008.5 mb 0.00 in0.0 mm 0.00 in0.0 mm 0.18 in4.6 mm
07:21 PM 48.9°F9.4°C 44.6°F7.0°C 85% 9.0 mph WNW14.5 kmh WNW 20.0 mph32.2 kmh 29.79 in1008.8 mb 0.00 in0.0 mm 0.00 in0.0 mm 0.18 in4.6 mm
07:24 PM 49.1°F9.5°C 44.8°F7.1°C 85% 11.0 mph WNW17.7 kmh WNW 26.0 mph41.8 kmh 29.80 in1009.1 mb 0.00 in0.0 mm 0.00 in0.0 mm 0.18 in4.6 mm
07:27 PM 48.9°F9.4°C 44.6°F7.0°C 85% 11.0 mph WNW17.7 kmh WNW 26.0 mph41.8 kmh 29.80 in1009.1 mb 0.00 in0.0 mm 0.00 in0.0 mm 0.18 in4.6 mm
07:30 PM 48.7°F9.3°C 44.8°F7.1°C 86% 10.0 mph WNW16.1 kmh WNW 26.0 mph41.8 kmh 29.80 in1009.1 mb 0.01 in0.3 mm 0.20 in5.1 mm 0.19 in4.8 mm
07:33 PM 48.4°F9.1°C 44.8°F7.1°C 87% 9.0 mph WNW14.5 kmh WNW 26.0 mph41.8 kmh 29.80 in1009.1 mb 0.02 in0.5 mm 0.20 in5.1 mm 0.20 in5.1 mm
07:36 PM 48.0°F8.9°C 44.8°F7.1°C 88% 9.0 mph WNW14.5 kmh WNW 20.0 mph32.2 kmh 29.80 in1009.1 mb 0.02 in0.5 mm 0.00 in0.0 mm 0.20 in5.1 mm
07:39 PM 47.8°F8.8°C 44.4°F6.9°C 88% 9.0 mph WNW14.5 kmh WNW 21.0 mph33.8 kmh 29.80 in1009.1 mb 0.02 in0.5 mm 0.00 in0.0 mm 0.20 in5.1 mm
07:42 PM 47.7°F8.7°C 44.2°F6.8°C 88% 9.0 mph WNW14.5 kmh WNW 24.0 mph38.6 kmh 29.80 in1009.1 mb 0.02 in0.5 mm 0.00 in0.0 mm 0.20 in5.1 mm
07:45 PM 47.5°F8.6°C 44.4°F6.9°C 89% 8.0 mph WNW12.9 kmh WNW 24.0 mph38.6 kmh 29.80 in1009.1 mb 0.02 in0.5 mm 0.00 in0.0 mm 0.20 in5.1 mm
07:48 PM 47.5°F8.6°C 44.2°F6.8°C 89% 8.0 mph WNW12.9 kmh WNW 24.0 mph38.6 kmh 29.81 in1009.5 mb 0.02 in0.5 mm 0.00 in0.0 mm 0.20 in5.1 mm
07:51 PM 47.3°F8.5°C 44.2°F6.8°C 89% 8.0 mph WNW12.9 kmh WNW 19.0 mph30.6 kmh 29.81 in1009.5 mb 0.02 in0.5 mm 0.00 in0.0 mm 0.20 in5.1 mm
07:54 PM 47.3°F8.5°C 44.2°F6.8°C 89% 8.0 mph WNW12.9 kmh WNW 19.0 mph30.6 kmh 29.81 in1009.5 mb 0.02 in0.5 mm 0.00 in0.0 mm 0.20 in5.1 mm
07:57 PM 47.3°F8.5°C 44.2°F6.8°C 89% 9.0 mph W14.5 kmh W 19.0 mph30.6 kmh 29.82 in1009.8 mb 0.02 in0.5 mm 0.00 in0.0 mm 0.20 in5.1 mm
08:00 PM 47.3°F8.5°C 44.6°F7.0°C 90% 8.0 mph W12.9 kmh W 19.0 mph30.6 kmh 29.82 in1009.8 mb 0.02 in0.5 mm 0.00 in0.0 mm 0.20 in5.1 mm
08:03 PM 47.3°F8.5°C 44.6°F7.0°C 90% 9.0 mph W14.5 kmh W 20.0 mph32.2 kmh 29.82 in1009.8 mb 0.02 in0.5 mm 0.00 in0.0 mm 0.20 in5.1 mm
08:06 PM 47.5°F8.6°C 44.6°F7.0°C 90% 9.0 mph W14.5 kmh W 20.0 mph32.2 kmh 29.82 in1009.8 mb 0.02 in0.5 mm 0.00 in0.0 mm 0.20 in5.1 mm
08:09 PM 47.5°F8.6°C 44.8°F7.1°C 90% 9.0 mph WNW14.5 kmh WNW 20.0 mph32.2 kmh 29.82 in1009.8 mb 0.02 in0.5 mm 0.00 in0.0 mm 0.20 in5.1 mm
08:12 PM 47.7°F8.7°C 44.8°F7.1°C 90% 10.0 mph W16.1 kmh W 21.0 mph33.8 kmh 29.82 in1009.8 mb 0.02 in0.5 mm 0.00 in0.0 mm 0.20 in5.1 mm
08:15 PM 47.5°F8.6°C 44.8°F7.1°C 90% 9.0 mph WNW14.5 kmh WNW 21.0 mph33.8 kmh 29.82 in1009.8 mb 0.02 in0.5 mm 0.00 in0.0 mm 0.20 in5.1 mm
08:18 PM 47.5°F8.6°C 44.6°F7.0°C 90% 9.0 mph WNW14.5 kmh WNW 21.0 mph33.8 kmh 29.83 in1010.2 mb 0.02 in0.5 mm 0.00 in0.0 mm 0.20 in5.1 mm
08:21 PM 47.3°F8.5°C 44.6°F7.0°C 90% 9.0 mph WNW14.5 kmh WNW 20.0 mph32.2 kmh 29.83 in1010.2 mb 0.02 in0.5 mm 0.00 in0.0 mm 0.20 in5.1 mm
08:24 PM 47.3°F8.5°C 44.6°F7.0°C 90% 8.0 mph WNW12.9 kmh WNW 19.0 mph30.6 kmh 29.83 in1010.2 mb 0.02 in0.5 mm 0.00 in0.0 mm 0.20 in5.1 mm
08:27 PM 47.3°F8.5°C 44.6°F7.0°C 90% 8.0 mph W12.9 kmh W 19.0 mph30.6 kmh 29.83 in1010.2 mb 0.02 in0.5 mm 0.00 in0.0 mm 0.20 in5.1 mm
08:30 PM 47.3°F8.5°C 44.6°F7.0°C 90% 7.0 mph W11.3 kmh W 19.0 mph30.6 kmh 29.83 in1010.2 mb 0.01 in0.3 mm 0.00 in0.0 mm 0.20 in5.1 mm
08:33 PM 47.3°F8.5°C 44.6°F7.0°C 90% 6.0 mph W9.7 kmh W 15.0 mph24.1 kmh 29.84 in1010.5 mb 0.00 in0.0 mm 0.00 in0.0 mm 0.20 in5.1 mm
08:36 PM 47.1°F8.4°C 44.4°F6.9°C 90% 6.0 mph W9.7 kmh W 15.0 mph24.1 kmh 29.84 in1010.5 mb 0.00 in0.0 mm 0.00 in0.0 mm 0.20 in5.1 mm
08:39 PM 47.1°F8.4°C 44.8°F7.1°C 91% 7.0 mph W11.3 kmh W 15.0 mph24.1 kmh 29.84 in1010.5 mb 0.00 in0.0 mm 0.00 in0.0 mm 0.20 in5.1 mm
08:42 PM 47.3°F8.5°C 44.8°F7.1°C 91% 7.0 mph WNW11.3 kmh WNW 19.0 mph30.6 kmh 29.84 in1010.5 mb 0.00 in0.0 mm 0.00 in0.0 mm 0.20 in5.1 mm
08:45 PM 47.5°F8.6°C 45.0°F7.2°C 91% 7.0 mph WNW11.3 kmh WNW 19.0 mph30.6 kmh 29.84 in1010.5 mb 0.00 in0.0 mm 0.00 in0.0 mm 0.20 in5.1 mm
08:48 PM 47.5°F8.6°C 44.6°F7.0°C 90% 7.0 mph WNW11.3 kmh WNW 19.0 mph30.6 kmh 29.84 in1010.5 mb 0.00 in0.0 mm 0.00 in0.0 mm 0.20 in5.1 mm
08:51 PM 47.5°F8.6°C 44.8°F7.1°C 90% 7.0 mph WNW11.3 kmh WNW 15.0 mph24.1 kmh 29.84 in1010.5 mb 0.00 in0.0 mm 0.00 in0.0 mm 0.20 in5.1 mm
08:54 PM 47.7°F8.7°C 44.8°F7.1°C 90% 8.0 mph WNW12.9 kmh WNW 15.0 mph24.1 kmh 29.84 in1010.5 mb 0.00 in0.0 mm 0.00 in0.0 mm 0.20 in5.1 mm
08:57 PM 47.7°F8.7°C 45.0°F7.2°C 90% 8.0 mph WNW12.9 kmh WNW 20.0 mph32.2 kmh 29.85 in1010.8 mb 0.00 in0.0 mm 0.00 in0.0 mm 0.20 in5.1 mm
09:00 PM 47.7°F8.7°C 44.6°F7.0°C 89% 9.0 mph WNW14.5 kmh WNW 20.0 mph32.2 kmh 29.85 in1010.8 mb 0.00 in0.0 mm 0.00 in0.0 mm 0.20 in5.1 mm
09:03 PM 47.7°F8.7°C 44.6°F7.0°C 89% 9.0 mph WNW14.5 kmh WNW 20.0 mph32.2 kmh 29.85 in1010.8 mb 0.00 in0.0 mm 0.00 in0.0 mm 0.20 in5.1 mm
09:06 PM 47.7°F8.7°C 44.6°F7.0°C 89% 9.0 mph WNW14.5 kmh WNW 20.0 mph32.2 kmh 29.85 in1010.8 mb 0.00 in0.0 mm 0.00 in0.0 mm 0.20 in5.1 mm
09:09 PM 47.7°F8.7°C 44.6°F7.0°C 89% 8.0 mph WNW12.9 kmh WNW 19.0 mph30.6 kmh 29.85 in1010.8 mb 0.00 in0.0 mm 0.00 in0.0 mm 0.20 in5.1 mm
09:12 PM 47.7°F8.7°C 44.6°F7.0°C 89% 8.0 mph WNW12.9 kmh WNW 19.0 mph30.6 kmh 29.86 in1011.2 mb 0.00 in0.0 mm 0.00 in0.0 mm 0.20 in5.1 mm
09:15 PM 47.7°F8.7°C 44.2°F6.8°C 88% 8.0 mph WNW12.9 kmh WNW 19.0 mph30.6 kmh 29.86 in1011.2 mb 0.00 in0.0 mm 0.00 in0.0 mm 0.20 in5.1 mm
09:18 PM 47.7°F8.7°C 44.2°F6.8°C 88% 8.0 mph WNW12.9 kmh WNW 18.0 mph29.0 kmh 29.86 in1011.2 mb 0.00 in0.0 mm 0.00 in0.0 mm 0.20 in5.1 mm
09:21 PM 47.7°F8.7°C 44.2°F6.8°C 88% 9.0 mph WNW14.5 kmh WNW 19.0 mph30.6 kmh 29.86 in1011.2 mb 0.00 in0.0 mm 0.00 in0.0 mm 0.20 in5.1 mm
09:24 PM 47.7°F8.7°C 44.2°F6.8°C 88% 9.0 mph WNW14.5 kmh WNW 19.0 mph30.6 kmh 29.86 in1011.2 mb 0.00 in0.0 mm 0.00 in0.0 mm 0.20 in5.1 mm
09:27 PM 47.7°F8.7°C 44.2°F6.8°C 88% 8.0 mph WNW12.9 kmh WNW 19.0 mph30.6 kmh 29.86 in1011.2 mb 0.00 in0.0 mm 0.00 in0.0 mm 0.20 in5.1 mm
09:30 PM 47.7°F8.7°C 44.2°F6.8°C 88% 8.0 mph WNW12.9 kmh WNW 18.0 mph29.0 kmh 29.87 in1011.5 mb 0.00 in0.0 mm 0.00 in0.0 mm 0.20 in5.1 mm
09:33 PM 47.8°F8.8°C 44.4°F6.9°C 88% 9.0 mph WNW14.5 kmh WNW 21.0 mph33.8 kmh 29.86 in1011.2 mb 0.00 in0.0 mm 0.00 in0.0 mm 0.20 in5.1 mm
09:36 PM 47.8°F8.8°C 44.4°F6.9°C 88% 9.0 mph WNW14.5 kmh WNW 21.0 mph33.8 kmh 29.87 in1011.5 mb 0.00 in0.0 mm 0.00 in0.0 mm 0.20 in5.1 mm
09:39 PM 47.8°F8.8°C 44.4°F6.9°C 88% 10.0 mph WNW16.1 kmh WNW 21.0 mph33.8 kmh 29.87 in1011.5 mb 0.00 in0.0 mm 0.00 in0.0 mm 0.20 in5.1 mm
09:42 PM 47.8°F8.8°C 44.4°F6.9°C 88% 9.0 mph WNW14.5 kmh WNW 21.0 mph33.8 kmh 29.87 in1011.5 mb 0.00 in0.0 mm 0.00 in0.0 mm 0.20 in5.1 mm
09:45 PM 47.7°F8.7°C 44.2°F6.8°C 88% 8.0 mph WNW12.9 kmh WNW 21.0 mph33.8 kmh 29.86 in1011.2 mb 0.00 in0.0 mm 0.00 in0.0 mm 0.20 in5.1 mm
09:48 PM 47.7°F8.7°C 44.1°F6.7°C 87% 8.0 mph WNW12.9 kmh WNW 25.0 mph40.2 kmh 29.86 in1011.2 mb 0.00 in0.0 mm 0.00 in0.0 mm 0.20 in5.1 mm
09:51 PM 47.7°F8.7°C 43.9°F6.6°C 87% 7.0 mph WNW11.3 kmh WNW 25.0 mph40.2 kmh 29.86 in1011.2 mb 0.00 in0.0 mm 0.00 in0.0 mm 0.20 in5.1 mm
09:54 PM 47.7°F8.7°C 43.9°F6.6°C 87% 7.0 mph WNW11.3 kmh WNW 25.0 mph40.2 kmh 29.86 in1011.2 mb 0.00 in0.0 mm 0.00 in0.0 mm 0.20 in5.1 mm
09:57 PM 47.5°F8.6°C 43.9°F6.6°C 87% 7.0 mph WNW11.3 kmh WNW 18.0 mph29.0 kmh 29.86 in1011.2 mb 0.00 in0.0 mm 0.00 in0.0 mm 0.20 in5.1 mm
10:00 PM 47.7°F8.7°C 43.9°F6.6°C 87% 8.0 mph WNW12.9 kmh WNW 18.0 mph29.0 kmh 29.87 in1011.5 mb 0.00 in0.0 mm 0.00 in0.0 mm 0.20 in5.1 mm
10:03 PM 47.7°F8.7°C 43.7°F6.5°C 86% 8.0 mph WNW12.9 kmh WNW 19.0 mph30.6 kmh 29.87 in1011.5 mb 0.00 in0.0 mm 0.00 in0.0 mm 0.20 in5.1 mm
10:06 PM 47.7°F8.7°C 43.7°F6.5°C 86% 8.0 mph WNW12.9 kmh WNW 19.0 mph30.6 kmh 29.87 in1011.5 mb 0.00 in0.0 mm 0.00 in0.0 mm 0.20 in5.1 mm
10:09 PM 47.7°F8.7°C 43.7°F6.5°C 86% 8.0 mph NW12.9 kmh NW 20.0 mph32.2 kmh 29.87 in1011.5 mb 0.00 in0.0 mm 0.00 in0.0 mm 0.20 in5.1 mm
10:12 PM 47.7°F8.7°C 43.7°F6.5°C 86% 8.0 mph WNW12.9 kmh WNW 20.0 mph32.2 kmh 29.88 in1011.9 mb 0.00 in0.0 mm 0.00 in0.0 mm 0.20 in5.1 mm
10:15 PM 47.5°F8.6°C 43.5°F6.4°C 86% 7.0 mph WNW11.3 kmh WNW 20.0 mph32.2 kmh 29.88 in1011.9 mb 0.00 in0.0 mm 0.00 in0.0 mm 0.20 in5.1 mm
10:18 PM 47.5°F8.6°C 43.5°F6.4°C 86% 8.0 mph WNW12.9 kmh WNW 19.0 mph30.6 kmh 29.88 in1011.9 mb 0.00 in0.0 mm 0.00 in0.0 mm 0.20 in5.1 mm
10:21 PM 47.5°F8.6°C 43.5°F6.4°C 86% 8.0 mph WNW12.9 kmh WNW 19.0 mph30.6 kmh 29.88 in1011.9 mb 0.00 in0.0 mm 0.00 in0.0 mm 0.20 in5.1 mm
10:24 PM 47.5°F8.6°C 43.3°F6.3°C 86% 8.0 mph WNW12.9 kmh WNW 19.0 mph30.6 kmh 29.88 in1011.9 mb 0.00 in0.0 mm 0.00 in0.0 mm 0.20 in5.1 mm
10:27 PM 47.5°F8.6°C 43.7°F6.5°C 87% 8.0 mph WNW12.9 kmh WNW 19.0 mph30.6 kmh 29.88 in1011.9 mb 0.00 in0.0 mm 0.00 in0.0 mm 0.20 in5.1 mm
10:30 PM 47.5°F8.6°C 43.7°F6.5°C 87% 8.0 mph WNW12.9 kmh WNW 18.0 mph29.0 kmh 29.88 in1011.9 mb 0.00 in0.0 mm 0.00 in0.0 mm 0.20 in5.1 mm
10:33 PM 47.5°F8.6°C 43.3°F6.3°C 86% 8.0 mph WNW12.9 kmh WNW 19.0 mph30.6 kmh 29.88 in1011.9 mb 0.00 in0.0 mm 0.00 in0.0 mm 0.20 in5.1 mm
10:36 PM 47.5°F8.6°C 43.5°F6.4°C 86% 8.0 mph WNW12.9 kmh WNW 19.0 mph30.6 kmh 29.88 in1011.9 mb 0.00 in0.0 mm 0.00 in0.0 mm 0.20 in5.1 mm
10:39 PM 47.5°F8.6°C 43.5°F6.4°C 86% 8.0 mph WNW12.9 kmh WNW 19.0 mph30.6 kmh 29.89 in1012.2 mb 0.00 in0.0 mm 0.00 in0.0 mm 0.20 in5.1 mm
10:42 PM 47.5°F8.6°C 43.5°F6.4°C 86% 9.0 mph NW14.5 kmh NW 19.0 mph30.6 kmh 29.89 in1012.2 mb 0.00 in0.0 mm 0.00 in0.0 mm 0.20 in5.1 mm
10:45 PM 47.7°F8.7°C 43.3°F6.3°C 85% 9.0 mph NW14.5 kmh NW 19.0 mph30.6 kmh 29.89 in1012.2 mb 0.00 in0.0 mm 0.00 in0.0 mm 0.20 in5.1 mm
10:48 PM 47.7°F8.7°C 43.3°F6.3°C 85% 9.0 mph NW14.5 kmh NW 19.0 mph30.6 kmh 29.89 in1012.2 mb 0.00 in0.0 mm 0.00 in0.0 mm 0.20 in5.1 mm
10:51 PM 47.7°F8.7°C 43.3°F6.3°C 85% 8.0 mph NW12.9 kmh NW 16.0 mph25.7 kmh 29.89 in1012.2 mb 0.00 in0.0 mm 0.00 in0.0 mm 0.20 in5.1 mm
10:54 PM 47.5°F8.6°C 43.5°F6.4°C 86% 8.0 mph NW12.9 kmh NW 15.0 mph24.1 kmh 29.90 in1012.5 mb 0.00 in0.0 mm 0.00 in0.0 mm 0.20 in5.1 mm
10:57 PM 47.5°F8.6°C 43.3°F6.3°C 86% 7.0 mph WNW11.3 kmh WNW 19.0 mph30.6 kmh 29.90 in1012.5 mb 0.00 in0.0 mm 0.00 in0.0 mm 0.20 in5.1 mm
11:00 PM 47.5°F8.6°C 43.7°F6.5°C 87% 7.0 mph WNW11.3 kmh WNW 19.0 mph30.6 kmh 29.90 in1012.5 mb 0.00 in0.0 mm 0.00 in0.0 mm 0.21 in5.3 mm
11:03 PM 47.3°F8.5°C 43.7°F6.5°C 87% 7.0 mph WNW11.3 kmh WNW 19.0 mph30.6 kmh 29.90 in1012.5 mb 0.00 in0.0 mm 0.00 in0.0 mm 0.21 in5.3 mm
11:06 PM 47.3°F8.5°C 43.7°F6.5°C 87% 7.0 mph WNW11.3 kmh WNW 20.0 mph32.2 kmh 29.90 in1012.5 mb 0.00 in0.0 mm 0.00 in0.0 mm 0.21 in5.3 mm
11:09 PM 47.3°F8.5°C 43.7°F6.5°C 87% 8.0 mph WNW12.9 kmh WNW 20.0 mph32.2 kmh 29.90 in1012.5 mb 0.00 in0.0 mm 0.00 in0.0 mm 0.21 in5.3 mm
11:12 PM 47.1°F8.4°C 43.5°F6.4°C 87% 8.0 mph WNW12.9 kmh WNW 20.0 mph32.2 kmh 29.90 in1012.5 mb 0.00 in0.0 mm 0.00 in0.0 mm 0.21 in5.3 mm
11:15 PM 47.1°F8.4°C 43.7°F6.5°C 88% 8.0 mph WNW12.9 kmh WNW 17.0 mph27.4 kmh 29.90 in1012.5 mb 0.00 in0.0 mm 0.00 in0.0 mm 0.21 in5.3 mm
11:18 PM 46.9°F8.3°C 43.3°F6.3°C 87% 8.0 mph WNW12.9 kmh WNW 17.0 mph27.4 kmh 29.90 in1012.5 mb 0.00 in0.0 mm 0.00 in0.0 mm 0.21 in5.3 mm
11:21 PM 46.9°F8.3°C 43.5°F6.4°C 88% 7.0 mph WNW11.3 kmh WNW 14.0 mph22.5 kmh 29.90 in1012.5 mb 0.00 in0.0 mm 0.00 in0.0 mm 0.21 in5.3 mm
11:24 PM 46.8°F8.2°C 43.5°F6.4°C 88% 7.0 mph WNW11.3 kmh WNW 14.0 mph22.5 kmh 29.90 in1012.5 mb 0.00 in0.0 mm 0.00 in0.0 mm 0.21 in5.3 mm
11:27 PM 46.8°F8.2°C 43.3°F6.3°C 88% 7.0 mph W11.3 kmh W 14.0 mph22.5 kmh 29.90 in1012.5 mb 0.00 in0.0 mm 0.00 in0.0 mm 0.21 in5.3 mm
11:30 PM 46.6°F8.1°C 43.2°F6.2°C 88% 7.0 mph W11.3 kmh W 16.0 mph25.7 kmh 29.90 in1012.5 mb 0.00 in0.0 mm 0.00 in0.0 mm 0.21 in5.3 mm
11:33 PM 46.6°F8.1°C 43.2°F6.2°C 88% 7.0 mph W11.3 kmh W 16.0 mph25.7 kmh 29.91 in1012.9 mb 0.00 in0.0 mm 0.00 in0.0 mm 0.21 in5.3 mm
11:36 PM 46.6°F8.1°C 43.2°F6.2°C 88% 9.0 mph W14.5 kmh W 20.0 mph32.2 kmh 29.91 in1012.9 mb 0.00 in0.0 mm 0.00 in0.0 mm 0.21 in5.3 mm
11:39 PM 46.8°F8.2°C 43.3°F6.3°C 88% 10.0 mph WNW16.1 kmh WNW 23.0 mph37.0 kmh 29.90 in1012.5 mb 0.00 in0.0 mm 0.00 in0.0 mm 0.21 in5.3 mm
11:42 PM 46.8°F8.2°C 43.0°F6.1°C 87% 11.0 mph WNW17.7 kmh WNW 23.0 mph37.0 kmh 29.90 in1012.5 mb 0.00 in0.0 mm 0.00 in0.0 mm 0.21 in5.3 mm
11:45 PM 46.8°F8.2°C 43.2°F6.2°C 87% 11.0 mph WNW17.7 kmh WNW 23.0 mph37.0 kmh 29.90 in1012.5 mb 0.00 in0.0 mm 0.00 in0.0 mm 0.21 in5.3 mm
11:48 PM 46.8°F8.2°C 43.0°F6.1°C 87% 10.0 mph W16.1 kmh W 19.0 mph30.6 kmh 29.90 in1012.5 mb 0.00 in0.0 mm 0.00 in0.0 mm 0.21 in5.3 mm
11:51 PM 46.6°F8.1°C 43.0°F6.1°C 87% 10.0 mph W16.1 kmh W 19.0 mph30.6 kmh 29.90 in1012.5 mb 0.00 in0.0 mm 0.00 in0.0 mm 0.21 in5.3 mm
11:54 PM 46.6°F8.1°C 42.8°F6.0°C 87% 9.0 mph W14.5 kmh W 18.0 mph29.0 kmh 29.90 in1012.5 mb 0.00 in0.0 mm 0.00 in0.0 mm 0.21 in5.3 mm
11:57 PM 46.4°F8.0°C 42.8°F6.0°C 87% 9.0 mph W14.5 kmh W 18.0 mph29.0 kmh 29.90 in1012.5 mb 0.00 in0.0 mm 0.00 in0.0 mm 0.21 in5.3 mm